Observation data for Fort Chadbourne on 01/18/2019      Previous  Date  Next       Current Mesonet Observations  Soil Data  Daily Summary Page  Observations in Plain Language
KCH1 180600Z 16000KT 05/04 A3007 RMK A01 T00540037  RH  089%=      5-min Rain = 0
KCH1 180601Z 17000KT 06/04 A3007 RMK A01 T00570039  RH  088%=      5-min Rain = 0
KCH1 180602Z 17000KT 06/04 A3007 RMK A01 T00590039  RH  087%=      5-min Rain = 0
KCH1 180603Z 17000KT 06/04 A3007 RMK A01 T00610038  RH  085%=      5-min Rain = 0
KCH1 180604Z 19000KT 06/04 A3007 RMK A01 T00610037  RH  085%=      5-min Rain = 0
KCH1 180605Z 19001KT 06/04 A3007 RMK A01 T00590037  RH  085%=      5-min Rain = 0
KCH1 180606Z 21001KT 06/04 A3007 RMK A01 T00590038  RH  086%=      5-min Rain = 0
KCH1 180607Z 19002KT 06/04 A3007 RMK A01 T00590040  RH  087%=      5-min Rain = 0
KCH1 180608Z 19002KT 06/04 A3007 RMK A01 T00600042  RH  088%=      5-min Rain = 0
KCH1 180609Z 18002KT 06/04 A3007 RMK A01 T00610042  RH  087%=      5-min Rain = 0
KCH1 180610Z 17002KT 06/04 A3007 RMK A01 T00630041  RH  086%=      5-min Rain = 0
KCH1 180611Z 18003KT 06/04 A3007 RMK A01 T00640041  RH  085%=      5-min Rain = 0
KCH1 180612Z 18002KT 07/04 A3007 RMK A01 T00670041  RH  084%=      5-min Rain = 0
KCH1 180613Z 17002KT 07/04 A3007 RMK A01 T00680041  RH  083%=      5-min Rain = 0
KCH1 180614Z 16001KT 07/04 A3007 RMK A01 T00690040  RH  082%=      5-min Rain = 0
KCH1 180615Z 19000KT 07/04 A3008 RMK A01 T00690040  RH  082%=      5-min Rain = 0
KCH1 180616Z 21001KT 07/04 A3008 RMK A01 T00710041  RH  081%=      5-min Rain = 0
KCH1 180617Z 21001KT 07/04 A3008 RMK A01 T00720041  RH  081%=      5-min Rain = 0
KCH1 180618Z 19001KT 07/04 A3008 RMK A01 T00720041  RH  081%=      5-min Rain = 0
KCH1 180619Z 19001KT 07/04 A3007 RMK A01 T00720041  RH  080%=      5-min Rain = 0
KCH1 180620Z 20001KT 07/04 A3007 RMK A01 T00730041  RH  080%=      5-min Rain = 0
KCH1 180621Z 19001KT 07/04 A3007 RMK A01 T00730041  RH  080%=      5-min Rain = 0
KCH1 180622Z 19001KT 07/04 A3007 RMK A01 T00730041  RH  080%=      5-min Rain = 0
KCH1 180623Z 18001KT 07/04 A3007 RMK A01 T00740042  RH  080%=      5-min Rain = 0
KCH1 180624Z 00000KT 07/04 A3007 RMK A01 T00740042  RH  080%=      5-min Rain = 0
KCH1 180625Z 14001KT 07/04 A3007 RMK A01 T00730042  RH  081%=      5-min Rain = 0
KCH1 180626Z 14001KT 07/04 A3007 RMK A01 T00730042  RH  081%=      5-min Rain = 0
KCH1 180627Z 13001KT 07/04 A3007 RMK A01 T00720042  RH  081%=      5-min Rain = 0
KCH1 180628Z 14001KT 07/04 A3007 RMK A01 T00720041  RH  081%=      5-min Rain = 0
KCH1 180629Z 12001KT 07/04 A3007 RMK A01 T00720041  RH  081%=      5-min Rain = 0
KCH1 180630Z 13001KT 07/04 A3007 RMK A01 T00720041  RH  081%=      5-min Rain = 0
KCH1 180631Z 10001KT 07/04 A3007 RMK A01 T00710042  RH  082%=      5-min Rain = 0
KCH1 180632Z 09000KT 07/04 A3007 RMK A01 T00710042  RH  082%=      5-min Rain = 0
KCH1 180633Z 00000KT 07/04 A3007 RMK A01 T00700042  RH  082%=      5-min Rain = 0
KCH1 180634Z 00000KT 07/04 A3007 RMK A01 T00710042  RH  082%=      5-min Rain = 0
KCH1 180635Z 00000KT 07/04 A3007 RMK A01 T00730043  RH  081%=      5-min Rain = 0
KCH1 180636Z 00000KT 08/04 A3007 RMK A01 T00750043  RH  080%=      5-min Rain = 0
KCH1 180637Z 13000KT 08/04 A3007 RMK A01 T00760043  RH  079%=      5-min Rain = 0
KCH1 180638Z 14001KT 08/04 A3007 RMK A01 T00780043  RH  078%=      5-min Rain = 0
KCH1 180639Z 14001KT 08/04 A3007 RMK A01 T00790043  RH  078%=      5-min Rain = 0
KCH1 180640Z 13001KT 08/04 A3007 RMK A01 T00790043  RH  078%=      5-min Rain = 0
KCH1 180641Z 13001KT 08/04 A3007 RMK A01 T00800042  RH  077%=      5-min Rain = 0
KCH1 180642Z 14001KT 08/04 A3007 RMK A01 T00800042  RH  077%=      5-min Rain = 0
KCH1 180643Z 14001KT 08/04 A3007 RMK A01 T00810043  RH  077%=      5-min Rain = 0
KCH1 180644Z 15001KT 08/04 A3007 RMK A01 T00810042  RH  076%=      5-min Rain = 0
KCH1 180645Z 16001KT 08/04 A3007 RMK A01 T00820042  RH  076%=      5-min Rain = 0
KCH1 180646Z 14002KT 08/04 A3006 RMK A01 T00820042  RH  076%=      5-min Rain = 0
KCH1 180647Z 14002KT 08/04 A3006 RMK A01 T00810041  RH  076%=      5-min Rain = 0
KCH1 180648Z 14001KT 08/04 A3006 RMK A01 T00820041  RH  076%=      5-min Rain = 0
KCH1 180649Z 13001KT 08/04 A3006 RMK A01 T00820042  RH  076%=      5-min Rain = 0
KCH1 180650Z 13001KT 08/04 A3006 RMK A01 T00810041  RH  076%=      5-min Rain = 0
KCH1 180651Z 13001KT 08/04 A3006 RMK A01 T00810042  RH  076%=      5-min Rain = 0
KCH1 180652Z 12001KT 08/04 A3006 RMK A01 T00810042  RH  076%=      5-min Rain = 0
KCH1 180653Z 11001KT 08/04 A3006 RMK A01 T00810041  RH  076%=      5-min Rain = 0
KCH1 180654Z 10001KT 08/04 A3006 RMK A01 T00780040  RH  077%=      5-min Rain = 0
KCH1 180655Z 08001KT 08/04 A3006 RMK A01 T00760040  RH  078%=      5-min Rain = 0
KCH1 180656Z 07001KT 08/04 A3006 RMK A01 T00750040  RH  078%=      5-min Rain = 0
KCH1 180657Z 07002KT 08/04 A3006 RMK A01 T00750040  RH  079%=      5-min Rain = 0
KCH1 180658Z 08002KT 08/04 A3006 RMK A01 T00750041  RH  079%=      5-min Rain = 0
KCH1 180659Z 09002KT 08/04 A3006 RMK A01 T00750040  RH  079%=      5-min Rain = 0
KCH1 180700Z 09002KT 08/04 A3006 RMK A01 T00760040  RH  078%=      5-min Rain = 0
KCH1 180701Z 10002KT 08/04 A3006 RMK A01 T00760040  RH  078%=      5-min Rain = 0
KCH1 180702Z 09002KT 08/04 A3006 RMK A01 T00760040  RH  078%=      5-min Rain = 0
KCH1 180703Z 09002KT 08/04 A3006 RMK A01 T00770041  RH  078%=      5-min Rain = 0
KCH1 180704Z 08002KT 08/04 A3006 RMK A01 T00780041  RH  078%=      5-min Rain = 0
KCH1 180705Z 10002KT 08/04 A3006 RMK A01 T00780041  RH  077%=      5-min Rain = 0
KCH1 180706Z 12002KT 08/04 A3006 RMK A01 T00780041  RH  077%=      5-min Rain = 0
KCH1 180707Z 12002KT 08/04 A3006 RMK A01 T00780041  RH  077%=      5-min Rain = 0
KCH1 180708Z 11002KT 08/04 A3005 RMK A01 T00800041  RH  077%=      5-min Rain = 0
KCH1 180709Z 10002KT 08/04 A3005 RMK A01 T00800041  RH  076%=      5-min Rain = 0
KCH1 180710Z 11002KT 08/04 A3005 RMK A01 T00810041  RH  076%=      5-min Rain = 0
KCH1 180711Z 11002KT 08/04 A3005 RMK A01 T00810041  RH  076%=      5-min Rain = 0
KCH1 180712Z 12002KT 08/04 A3005 RMK A01 T00810041  RH  076%=      5-min Rain = 0
KCH1 180713Z 12003KT 08/04 A3005 RMK A01 T00810041  RH  076%=      5-min Rain = 0
KCH1 180714Z 13003KT 08/04 A3005 RMK A01 T00810042  RH  076%=      5-min Rain = 0
KCH1 180715Z 13003KT 08/04 A3005 RMK A01 T00820041  RH  076%=      5-min Rain = 0
KCH1 180716Z 13003KT 08/04 A3005 RMK A01 T00820042  RH  075%=      5-min Rain = 0
KCH1 180717Z 13003KT 08/04 A3005 RMK A01 T00830042  RH  075%=      5-min Rain = 0
KCH1 180718Z 13003KT 08/04 A3005 RMK A01 T00830042  RH  075%=      5-min Rain = 0
KCH1 180719Z 13003KT 08/04 A3005 RMK A01 T00830042  RH  075%=      5-min Rain = 0
KCH1 180720Z 14003KT 08/04 A3005 RMK A01 T00830041  RH  075%=      5-min Rain = 0
KCH1 180721Z 14003KT 08/04 A3005 RMK A01 T00830042  RH  075%=      5-min Rain = 0
KCH1 180722Z 14002KT 08/04 A3005 RMK A01 T00830042  RH  075%=      5-min Rain = 0
KCH1 180723Z 14002KT 08/04 A3005 RMK A01 T00840042  RH  075%=      5-min Rain = 0
KCH1 180724Z 15002KT 08/04 A3005 RMK A01 T00840042  RH  075%=      5-min Rain = 0
KCH1 180725Z 15002KT 08/04 A3005 RMK A01 T00820041  RH  075%=      5-min Rain = 0
KCH1 180726Z 15002KT 08/04 A3004 RMK A01 T00790041  RH  076%=      5-min Rain = 0
KCH1 180727Z 15002KT 08/04 A3004 RMK A01 T00780040  RH  077%=      5-min Rain = 0
KCH1 180728Z 15002KT 08/04 A3004 RMK A01 T00770040  RH  078%=      5-min Rain = 0
KCH1 180729Z 16002KT 08/04 A3004 RMK A01 T00760041  RH  079%=      5-min Rain = 0
KCH1 180730Z 16002KT 08/04 A3004 RMK A01 T00750041  RH  079%=      5-min Rain = 0
KCH1 180731Z 15002KT 07/04 A3004 RMK A01 T00740041  RH  080%=      5-min Rain = 0
KCH1 180732Z 15001KT 07/04 A3004 RMK A01 T00740041  RH  080%=      5-min Rain = 0
KCH1 180733Z 14001KT 07/04 A3004 RMK A01 T00730041  RH  080%=      5-min Rain = 0
KCH1 180734Z 13000KT 07/04 A3004 RMK A01 T00730042  RH  080%=      5-min Rain = 0
KCH1 180735Z 14000KT 07/04 A3004 RMK A01 T00740042  RH  080%=      5-min Rain = 0
KCH1 180736Z 00000KT 07/04 A3004 RMK A01 T00740042  RH  080%=      5-min Rain = 0
KCH1 180737Z 00000KT 08/04 A3004 RMK A01 T00750042  RH  080%=      5-min Rain = 0
KCH1 180738Z 14000KT 08/04 A3004 RMK A01 T00750042  RH  080%=      5-min Rain = 0
KCH1 180739Z 13000KT 08/04 A3004 RMK A01 T00750042  RH  080%=      5-min Rain = 0
KCH1 180740Z 13001KT 08/04 A3004 RMK A01 T00750042  RH  080%=      5-min Rain = 0
KCH1 180741Z 14000KT 08/04 A3004 RMK A01 T00750042  RH  080%=      5-min Rain = 0
KCH1 180742Z 11001KT 08/04 A3004 RMK A01 T00750042  RH  079%=      5-min Rain = 0
KCH1 180743Z 14001KT 08/04 A3004 RMK A01 T00750041  RH  079%=      5-min Rain = 0
KCH1 180744Z 12001KT 07/04 A3004 RMK A01 T00740041  RH  080%=      5-min Rain = 0
KCH1 180745Z 13001KT 07/04 A3004 RMK A01 T00740042  RH  080%=      5-min Rain = 0
KCH1 180746Z 12001KT 07/04 A3004 RMK A01 T00740042  RH  080%=      5-min Rain = 0
KCH1 180747Z 13002KT 07/04 A3004 RMK A01 T00740042  RH  080%=      5-min Rain = 0
KCH1 180748Z 12001KT 08/04 A3004 RMK A01 T00760043  RH  080%=      5-min Rain = 0
KCH1 180749Z 12002KT 08/04 A3004 RMK A01 T00770043  RH  079%=      5-min Rain = 0
KCH1 180750Z 09001KT 08/04 A3003 RMK A01 T00770043  RH  079%=      5-min Rain = 0
KCH1 180751Z 10002KT 08/04 A3003 RMK A01 T00770043  RH  079%=      5-min Rain = 0
KCH1 180752Z 10001KT 08/04 A3003 RMK A01 T00770043  RH  079%=      5-min Rain = 0
KCH1 180753Z 10002KT 08/04 A3003 RMK A01 T00760042  RH  079%=      5-min Rain = 0
KCH1 180754Z 10002KT 08/04 A3003 RMK A01 T00750042  RH  079%=      5-min Rain = 0
KCH1 180755Z 10003KT 08/04 A3003 RMK A01 T00750042  RH  080%=      5-min Rain = 0
KCH1 180756Z 10003KT 07/04 A3003 RMK A01 T00740042  RH  080%=      5-min Rain = 0
KCH1 180757Z 10003KT 07/04 A3003 RMK A01 T00730041  RH  081%=      5-min Rain = 0
KCH1 180758Z 10003KT 07/04 A3003 RMK A01 T00710040  RH  081%=      5-min Rain = 0
KCH1 180759Z 09003KT 07/04 A3003 RMK A01 T00670039  RH  082%=      5-min Rain = 0
KCH1 180800Z 09003KT 07/04 A3003 RMK A01 T00660039  RH  083%=      5-min Rain = 0
KCH1 180801Z 10003KT 07/04 A3003 RMK A01 T00660040  RH  084%=      5-min Rain = 0
KCH1 180802Z 09003KT 07/04 A3003 RMK A01 T00660041  RH  084%=      5-min Rain = 0
KCH1 180803Z 10003KT 07/04 A3003 RMK A01 T00660040  RH  084%=      5-min Rain = 0
KCH1 180804Z 08003KT 07/04 A3003 RMK A01 T00660041  RH  084%=      5-min Rain = 0
KCH1 180805Z 10003KT 07/04 A3003 RMK A01 T00660041  RH  084%=      5-min Rain = 0
KCH1 180806Z 10002KT 07/04 A3003 RMK A01 T00670041  RH  084%=      5-min Rain = 0
KCH1 180807Z 10003KT 07/04 A3003 RMK A01 T00670041  RH  084%=      5-min Rain = 0
KCH1 180808Z 10003KT 07/04 A3003 RMK A01 T00680042  RH  083%=      5-min Rain = 0
KCH1 180809Z 11003KT 07/04 A3003 RMK A01 T00690042  RH  083%=      5-min Rain = 0
KCH1 180810Z 12003KT 07/04 A3003 RMK A01 T00700042  RH  082%=      5-min Rain = 0
KCH1 180811Z 12004KT 07/04 A3003 RMK A01 T00700042  RH  082%=      5-min Rain = 0
KCH1 180812Z 12004KT 07/04 A3003 RMK A01 T00700042  RH  082%=      5-min Rain = 0
KCH1 180813Z 12005KT 07/04 A3003 RMK A01 T00710043  RH  082%=      5-min Rain = 0
KCH1 180814Z 13004KT 07/04 A3003 RMK A01 T00720043  RH  081%=      5-min Rain = 0
KCH1 180815Z 13004KT 07/04 A3003 RMK A01 T00730042  RH  081%=      5-min Rain = 0
KCH1 180816Z 13004KT 07/04 A3003 RMK A01 T00730042  RH  081%=      5-min Rain = 0
KCH1 180817Z 12004KT 07/04 A3003 RMK A01 T00730043  RH  081%=      5-min Rain = 0
KCH1 180818Z 12004KT 07/04 A3003 RMK A01 T00730043  RH  081%=      5-min Rain = 0
KCH1 180819Z 12004KT 07/04 A3003 RMK A01 T00730043  RH  081%=      5-min Rain = 0
KCH1 180820Z 12004KT 07/04 A3003 RMK A01 T00740043  RH  081%=      5-min Rain = 0
KCH1 180821Z 12003KT 08/04 A3003 RMK A01 T00750043  RH  081%=      5-min Rain = 0
KCH1 180822Z 12003KT 08/04 A3003 RMK A01 T00750043  RH  080%=      5-min Rain = 0
KCH1 180823Z 12003KT 08/04 A3003 RMK A01 T00750043  RH  080%=      5-min Rain = 0
KCH1 180824Z 12003KT 08/04 A3002 RMK A01 T00750043  RH  080%=      5-min Rain = 0
KCH1 180825Z 12004KT 07/04 A3002 RMK A01 T00740042  RH  080%=      5-min Rain = 0
KCH1 180826Z 12004KT 07/04 A3002 RMK A01 T00720041  RH  081%=      5-min Rain = 0
KCH1 180827Z 12004KT 07/04 A3002 RMK A01 T00710041  RH  082%=      5-min Rain = 0
KCH1 180828Z 13004KT 07/04 A3002 RMK A01 T00700042  RH  082%=      5-min Rain = 0
KCH1 180829Z 12004KT 07/04 A3002 RMK A01 T00700042  RH  082%=      5-min Rain = 0
KCH1 180830Z 12004KT 07/04 A3002 RMK A01 T00690041  RH  082%=      5-min Rain = 0
KCH1 180831Z 13004KT 07/04 A3002 RMK A01 T00690041  RH  083%=      5-min Rain = 0
KCH1 180832Z 12004KT 07/04 A3002 RMK A01 T00680041  RH  083%=      5-min Rain = 0
KCH1 180833Z 12004KT 07/04 A3002 RMK A01 T00680042  RH  083%=      5-min Rain = 0
KCH1 180834Z 11003KT 07/04 A3002 RMK A01 T00690042  RH  083%=      5-min Rain = 0
KCH1 180835Z 12004KT 07/04 A3003 RMK A01 T00690041  RH  083%=      5-min Rain = 0
KCH1 180836Z 12004KT 07/04 A3003 RMK A01 T00680041  RH  083%=      5-min Rain = 0
KCH1 180837Z 12004KT 07/04 A3003 RMK A01 T00680042  RH  083%=      5-min Rain = 0
KCH1 180838Z 12005KT 07/04 A3003 RMK A01 T00690041  RH  083%=      5-min Rain = 0
KCH1 180839Z 11004KT 07/04 A3003 RMK A01 T00680041  RH  083%=      5-min Rain = 0
KCH1 180840Z 11004KT 07/04 A3003 RMK A01 T00680041  RH  083%=      5-min Rain = 0
KCH1 180841Z 11005KT 07/04 A3002 RMK A01 T00670040  RH  083%=      5-min Rain = 0
KCH1 180842Z 11005KT 07/04 A3002 RMK A01 T00660040  RH  083%=      5-min Rain = 0
KCH1 180843Z 11005KT 07/04 A3002 RMK A01 T00660040  RH  084%=      5-min Rain = 0
KCH1 180844Z 11005KT 07/04 A3002 RMK A01 T00650040  RH  084%=      5-min Rain = 0
KCH1 180845Z 11005KT 06/04 A3002 RMK A01 T00630039  RH  085%=      5-min Rain = 0
KCH1 180846Z 11005KT 06/04 A3002 RMK A01 T00620039  RH  086%=      5-min Rain = 0
KCH1 180847Z 11005KT 06/04 A3002 RMK A01 T00610039  RH  086%=      5-min Rain = 0
KCH1 180848Z 10005KT 06/04 A3002 RMK A01 T00590038  RH  086%=      5-min Rain = 0
KCH1 180849Z 10005KT 06/04 A3002 RMK A01 T00560036  RH  087%=      5-min Rain = 0
KCH1 180850Z 10005KT 05/04 A3002 RMK A01 T00540035  RH  088%=      5-min Rain = 0
KCH1 180851Z 10005KT 05/04 A3002 RMK A01 T00520035  RH  089%=      5-min Rain = 0
KCH1 180852Z 10005KT 05/04 A3002 RMK A01 T00520037  RH  090%=      5-min Rain = 0
KCH1 180853Z 10005KT 05/04 A3002 RMK A01 T00530039  RH  091%=      5-min Rain = 0
KCH1 180854Z 10005KT 06/04 A3002 RMK A01 T00550041  RH  090%=      5-min Rain = 0
KCH1 180855Z 10005KT 06/04 A3001 RMK A01 T00570041  RH  089%=      5-min Rain = 0
KCH1 180856Z 09005KT 06/04 A3001 RMK A01 T00580041  RH  089%=      5-min Rain = 0
KCH1 180857Z 09004KT 06/04 A3001 RMK A01 T00590041  RH  088%=      5-min Rain = 0
KCH1 180858Z 09004KT 06/04 A3001 RMK A01 T00590041  RH  088%=      5-min Rain = 0
KCH1 180859Z 08004KT 06/04 A3001 RMK A01 T00600041  RH  088%=      5-min Rain = 0
KCH1 180900Z 09004KT 06/04 A3001 RMK A01 T00610042  RH  088%=      5-min Rain = 0
KCH1 180901Z 09004KT 06/04 A3001 RMK A01 T00620043  RH  087%=      5-min Rain = 0
KCH1 180902Z 09004KT 06/04 A3001 RMK A01 T00640043  RH  087%=      5-min Rain = 0
KCH1 180903Z 09004KT 07/04 A3001 RMK A01 T00650043  RH  086%=      5-min Rain = 0
KCH1 180904Z 09004KT 07/04 A3001 RMK A01 T00660044  RH  086%=      5-min Rain = 0
KCH1 180905Z 08004KT 07/04 A3001 RMK A01 T00670044  RH  085%=      5-min Rain = 0
KCH1 180906Z 07004KT 07/04 A3001 RMK A01 T00670043  RH  084%=      5-min Rain = 0
KCH1 180907Z 07004KT 07/04 A3001 RMK A01 T00670043  RH  084%=      5-min Rain = 0
KCH1 180908Z 07004KT 07/04 A3001 RMK A01 T00680043  RH  084%=      5-min Rain = 0
KCH1 180909Z 07004KT 07/04 A3001 RMK A01 T00680043  RH  084%=      5-min Rain = 0
KCH1 180910Z 06004KT 07/04 A3001 RMK A01 T00690043  RH  084%=      5-min Rain = 0
KCH1 180911Z 06004KT 07/04 A3001 RMK A01 T00690043  RH  083%=      5-min Rain = 0
KCH1 180912Z 06004KT 07/04 A3001 RMK A01 T00690043  RH  083%=      5-min Rain = 0
KCH1 180913Z 06004KT 07/04 A3001 RMK A01 T00690042  RH  083%=      5-min Rain = 0
KCH1 180914Z 07004KT 07/04 A3001 RMK A01 T00680042  RH  084%=      5-min Rain = 0
KCH1 180915Z 07004KT 07/04 A3001 RMK A01 T00680043  RH  084%=      5-min Rain = 0
KCH1 180916Z 08004KT 07/04 A3001 RMK A01 T00680043  RH  084%=      5-min Rain = 0
KCH1 180917Z 09004KT 07/04 A3001 RMK A01 T00680043  RH  084%=      5-min Rain = 0
KCH1 180918Z 09004KT 07/04 A3001 RMK A01 T00690043  RH  084%=      5-min Rain = 0
KCH1 180919Z 09004KT 07/04 A3001 RMK A01 T00690043  RH  084%=      5-min Rain = 0
KCH1 180920Z 10003KT 07/04 A3001 RMK A01 T00690043  RH  084%=      5-min Rain = 0
KCH1 180921Z 10003KT 07/04 A3001 RMK A01 T00690043  RH  083%=      5-min Rain = 0
KCH1 180922Z 10003KT 07/04 A3001 RMK A01 T00690043  RH  083%=      5-min Rain = 0
KCH1 180923Z 11003KT 07/04 A3001 RMK A01 T00690042  RH  083%=      5-min Rain = 0
KCH1 180924Z 11003KT 07/04 A3001 RMK A01 T00680042  RH  083%=      5-min Rain = 0
KCH1 180925Z 12003KT 07/04 A3001 RMK A01 T00680042  RH  084%=      5-min Rain = 0
KCH1 180926Z 12003KT 07/04 A3001 RMK A01 T00670042  RH  084%=      5-min Rain = 0
KCH1 180927Z 13003KT 07/04 A30 RMK A01 T00660042  RH  084%=      5-min Rain = 0
KCH1 180928Z 13003KT 07/04 A30 RMK A01 T00650041  RH  085%=      5-min Rain = 0
KCH1 180929Z 14003KT 06/04 A30 RMK A01 T00620038  RH  085%=      5-min Rain = 0
KCH1 180930Z 14003KT 06/04 A30 RMK A01 T00600038  RH  086%=      5-min Rain = 0
KCH1 180931Z 14003KT 06/04 A30 RMK A01 T00590039  RH  087%=      5-min Rain = 0
KCH1 180932Z 15003KT 06/04 A30 RMK A01 T00590039  RH  087%=      5-min Rain = 0
KCH1 180933Z 15003KT 06/04 A30 RMK A01 T00580040  RH  088%=      5-min Rain = 0
KCH1 180934Z 16003KT 06/04 A30 RMK A01 T00580040  RH  088%=      5-min Rain = 0
KCH1 180935Z 16003KT 06/04 A30 RMK A01 T00590040  RH  088%=      5-min Rain = 0
KCH1 180936Z 17003KT 06/04 A30 RMK A01 T00590040  RH  088%=      5-min Rain = 0
KCH1 180937Z 18003KT 06/04 A30 RMK A01 T00590040  RH  088%=      5-min Rain = 0
KCH1 180938Z 17003KT 06/04 A30 RMK A01 T00590040  RH  088%=      5-min Rain = 0
KCH1 180939Z 17004KT 06/04 A2999 RMK A01 T00590040  RH  088%=      5-min Rain = 0
KCH1 180940Z 17004KT 06/04 A2999 RMK A01 T00590040  RH  088%=      5-min Rain = 0
KCH1 180941Z 17004KT 06/04 A2999 RMK A01 T00580040  RH  088%=      5-min Rain = 0
KCH1 180942Z 16004KT 06/04 A2999 RMK A01 T00580040  RH  088%=      5-min Rain = 0
KCH1 180943Z 16004KT 06/04 A2999 RMK A01 T00580040  RH  088%=      5-min Rain = 0
KCH1 180944Z 15003KT 06/04 A2999 RMK A01 T00570040  RH  089%=      5-min Rain = 0
KCH1 180945Z 15003KT 06/04 A2999 RMK A01 T00570040  RH  089%=      5-min Rain = 0
KCH1 180946Z 15002KT 06/04 A2999 RMK A01 T00570040  RH  089%=      5-min Rain = 0
KCH1 180947Z 15001KT 06/04 A2999 RMK A01 T00570041  RH  089%=      5-min Rain = 0
KCH1 180948Z 15000KT 06/04 A2999 RMK A01 T00570041  RH  089%=      5-min Rain = 0
KCH1 180949Z 00000KT 06/04 A2999 RMK A01 T00570040  RH  089%=      5-min Rain = 0
KCH1 180950Z 00000KT 06/04 A2999 RMK A01 T00570041  RH  089%=      5-min Rain = 0
KCH1 180951Z 00000KT 06/04 A2999 RMK A01 T00570041  RH  090%=      5-min Rain = 0
KCH1 180952Z 03000KT 06/04 A2999 RMK A01 T00580042  RH  090%=      5-min Rain = 0
KCH1 180953Z 34000KT 06/04 A2999 RMK A01 T00580042  RH  089%=      5-min Rain = 0
KCH1 180954Z 01000KT 06/04 A2999 RMK A01 T00580042  RH  089%=      5-min Rain = 0
KCH1 180955Z 02000KT 06/04 A2999 RMK A01 T00580042  RH  089%=      5-min Rain = 0
KCH1 180956Z 02001KT 06/04 A2999 RMK A01 T00590042  RH  089%=      5-min Rain = 0
KCH1 180957Z 02000KT 06/04 A2999 RMK A01 T00590043  RH  089%=      5-min Rain = 0
KCH1 180958Z 00000KT 06/04 A2999 RMK A01 T00600043  RH  089%=      5-min Rain = 0
KCH1 180959Z 00000KT 06/04 A2999 RMK A01 T00610043  RH  089%=      5-min Rain = 0
KCH1 181000Z 00000KT 06/04 A2999 RMK A01 T00610043  RH  088%=      5-min Rain = 0
KCH1 181001Z 00000KT 06/04 A2999 RMK A01 T00620044  RH  088%=      5-min Rain = 0
KCH1 181002Z 23000KT 06/04 A2999 RMK A01 T00620044  RH  088%=      5-min Rain = 0
KCH1 181003Z 23001KT 06/04 A2999 RMK A01 T00630043  RH  088%=      5-min Rain = 0
KCH1 181004Z 23001KT 06/04 A2999 RMK A01 T00630043  RH  087%=      5-min Rain = 0
KCH1 181005Z 23001KT 06/04 A2999 RMK A01 T00630043  RH  087%=      5-min Rain = 0
KCH1 181006Z 23001KT 06/04 A2999 RMK A01 T00630043  RH  087%=      5-min Rain = 0
KCH1 181007Z 22001KT 06/04 A2999 RMK A01 T00630043  RH  087%=      5-min Rain = 0
KCH1 181008Z 23001KT 06/04 A2999 RMK A01 T00640043  RH  087%=      5-min Rain = 0
KCH1 181009Z 21001KT 06/04 A2999 RMK A01 T00640044  RH  087%=      5-min Rain = 0
KCH1 181010Z 20001KT 06/04 A2999 RMK A01 T00640044  RH  087%=      5-min Rain = 0
KCH1 181011Z 19001KT 06/04 A2999 RMK A01 T00640043  RH  086%=      5-min Rain = 0
KCH1 181012Z 19001KT 06/04 A2999 RMK A01 T00640043  RH  086%=      5-min Rain = 0
KCH1 181013Z 19001KT 06/04 A2999 RMK A01 T00640043  RH  086%=      5-min Rain = 0
KCH1 181014Z 19000KT 06/04 A2999 RMK A01 T00640043  RH  086%=      5-min Rain = 0
KCH1 181015Z 20001KT 06/04 A2999 RMK A01 T00640043  RH  086%=      5-min Rain = 0
KCH1 181016Z 21001KT 06/04 A2999 RMK A01 T00630042  RH  086%=      5-min Rain = 0
KCH1 181017Z 22000KT 06/04 A2999 RMK A01 T00620042  RH  087%=      5-min Rain = 0
KCH1 181018Z 22001KT 06/04 A2999 RMK A01 T00630044  RH  087%=      5-min Rain = 0
KCH1 181019Z 22000KT 06/04 A2999 RMK A01 T00630043  RH  087%=      5-min Rain = 0
KCH1 181020Z 00000KT 06/04 A2999 RMK A01 T00630043  RH  087%=      5-min Rain = 0
KCH1 181021Z 00000KT 06/04 A2999 RMK A01 T00640044  RH  087%=      5-min Rain = 0
KCH1 181022Z 00000KT 06/04 A2998 RMK A01 T00640044  RH  087%=      5-min Rain = 0
KCH1 181023Z 00000KT 06/04 A2998 RMK A01 T00640044  RH  087%=      5-min Rain = 0
KCH1 181024Z 00000KT 06/04 A2998 RMK A01 T00640044  RH  087%=      5-min Rain = 0
KCH1 181025Z 14001KT 06/04 A2998 RMK A01 T00640043  RH  086%=      5-min Rain = 0
KCH1 181026Z 13002KT 06/04 A2998 RMK A01 T00640042  RH  086%=      5-min Rain = 0
KCH1 181027Z 13002KT 06/04 A2998 RMK A01 T00610038  RH  085%=      5-min Rain = 0
KCH1 181028Z 13002KT 06/04 A2998 RMK A01 T00590039  RH  087%=      5-min Rain = 0
KCH1 181029Z 12002KT 06/04 A2997 RMK A01 T00580039  RH  088%=      5-min Rain = 0
KCH1 181030Z 12002KT 06/04 A2997 RMK A01 T00560038  RH  088%=      5-min Rain = 0
KCH1 181031Z 12002KT 05/04 A2997 RMK A01 T00540037  RH  089%=      5-min Rain = 0
KCH1 181032Z 12001KT 05/04 A2997 RMK A01 T00530036  RH  089%=      5-min Rain = 0
KCH1 181033Z 11001KT 05/04 A2997 RMK A01 T00510035  RH  090%=      5-min Rain = 0
KCH1 181034Z 10001KT 05/04 A2997 RMK A01 T00500036  RH  091%=      5-min Rain = 0
KCH1 181035Z 10000KT 05/04 A2997 RMK A01 T00500038  RH  092%=      5-min Rain = 0
KCH1 181036Z 00000KT 05/04 A2997 RMK A01 T00500038  RH  093%=      5-min Rain = 0
KCH1 181037Z 00000KT 05/04 A2997 RMK A01 T00500040  RH  093%=      5-min Rain = 0
KCH1 181038Z 00000KT 05/04 A2997 RMK A01 T00520042  RH  094%=      5-min Rain = 0
KCH1 181039Z 08001KT 05/04 A2997 RMK A01 T00530044  RH  094%=      5-min Rain = 0
KCH1 181040Z 08001KT 05/05 A2997 RMK A01 T00540045  RH  094%=      5-min Rain = 0
KCH1 181041Z 08001KT 06/04 A2997 RMK A01 T00550044  RH  093%=      5-min Rain = 0
KCH1 181042Z 08001KT 05/04 A2997 RMK A01 T00540042  RH  092%=      5-min Rain = 0
KCH1 181043Z 09002KT 05/04 A2997 RMK A01 T00540041  RH  092%=      5-min Rain = 0
KCH1 181044Z 09002KT 05/04 A2997 RMK A01 T00540041  RH  091%=      5-min Rain = 0
KCH1 181045Z 09002KT 05/04 A2997 RMK A01 T00530039  RH  091%=      5-min Rain = 0
KCH1 181046Z 09001KT 05/04 A2997 RMK A01 T00510038  RH  091%=      5-min Rain = 0
KCH1 181047Z 09001KT 05/04 A2997 RMK A01 T00510039  RH  092%=      5-min Rain = 0
KCH1 181048Z 10001KT 05/04 A2997 RMK A01 T00510040  RH  093%=      5-min Rain = 0
KCH1 181049Z 11002KT 05/04 A2997 RMK A01 T00520042  RH  093%=      5-min Rain = 0
KCH1 181050Z 12002KT 05/04 A2996 RMK A01 T00540043  RH  093%=      5-min Rain = 0
KCH1 181051Z 13002KT 05/04 A2996 RMK A01 T00540042  RH  091%=      5-min Rain = 0
KCH1 181052Z 13002KT 05/04 A2996 RMK A01 T00540040  RH  091%=      5-min Rain = 0
KCH1 181053Z 14002KT 05/04 A2996 RMK A01 T00530040  RH  091%=      5-min Rain = 0
KCH1 181054Z 13002KT 05/04 A2996 RMK A01 T00520039  RH  091%=      5-min Rain = 0
KCH1 181055Z 13002KT 05/04 A2996 RMK A01 T00520040  RH  092%=      5-min Rain = 0
KCH1 181056Z 14002KT 05/04 A2996 RMK A01 T00520041  RH  092%=      5-min Rain = 0
KCH1 181057Z 16001KT 05/04 A2996 RMK A01 T00530042  RH  092%=      5-min Rain = 0
KCH1 181058Z 16001KT 05/04 A2996 RMK A01 T00540042  RH  092%=      5-min Rain = 0
KCH1 181059Z 15000KT 05/04 A2996 RMK A01 T00540042  RH  092%=      5-min Rain = 0
KCH1 181100Z 00000KT 05/04 A2996 RMK A01 T00530038  RH  090%=      5-min Rain = 0
KCH1 181101Z 00000KT 05/03 A2996 RMK A01 T00490034  RH  090%=      5-min Rain = 0
KCH1 181102Z 00000KT 05/03 A2996 RMK A01 T00460030  RH  090%=      5-min Rain = 0
KCH1 181103Z 00000KT 04/03 A2996 RMK A01 T00440031  RH  091%=      5-min Rain = 0
KCH1 181104Z 00000KT 04/03 A2996 RMK A01 T00430032  RH  093%=      5-min Rain = 0
KCH1 181105Z 00000KT 04/03 A2996 RMK A01 T00430033  RH  093%=      5-min Rain = 0
KCH1 181106Z 00000KT 04/03 A2996 RMK A01 T00420034  RH  094%=      5-min Rain = 0
KCH1 181107Z 00000KT 04/04 A2996 RMK A01 T00430035  RH  095%=      5-min Rain = 0
KCH1 181108Z 10000KT 04/04 A2996 RMK A01 T00430035  RH  095%=      5-min Rain = 0
KCH1 181109Z 00000KT 04/03 A2996 RMK A01 T00420034  RH  095%=      5-min Rain = 0
KCH1 181110Z 00000KT 04/03 A2996 RMK A01 T00420034  RH  095%=      5-min Rain = 0
KCH1 181111Z 04001KT 04/04 A2996 RMK A01 T00430036  RH  095%=      5-min Rain = 0
KCH1 181112Z 04001KT 04/04 A2996 RMK A01 T00430036  RH  095%=      5-min Rain = 0
KCH1 181113Z 04002KT 04/04 A2996 RMK A01 T00430037  RH  096%=      5-min Rain = 0
KCH1 181114Z 04002KT 04/04 A2996 RMK A01 T00440037  RH  096%=      5-min Rain = 0
KCH1 181115Z 04002KT 04/04 A2996 RMK A01 T00440037  RH  095%=      5-min Rain = 0
KCH1 181116Z 03002KT 04/04 A2996 RMK A01 T00430035  RH  095%=      5-min Rain = 0
KCH1 181117Z 02003KT 04/04 A2996 RMK A01 T00420035  RH  095%=      5-min Rain = 0
KCH1 181118Z 02003KT 04/04 A2996 RMK A01 T00420035  RH  095%=      5-min Rain = 0
KCH1 181119Z 02003KT 04/03 A2996 RMK A01 T00420034  RH  095%=      5-min Rain = 0
KCH1 181120Z 02003KT 04/04 A2996 RMK A01 T00420035  RH  095%=      5-min Rain = 0
KCH1 181121Z 02003KT 04/04 A2996 RMK A01 T00430037  RH  096%=      5-min Rain = 0
KCH1 181122Z 02002KT 04/04 A2996 RMK A01 T00440039  RH  096%=      5-min Rain = 0
KCH1 181123Z 02002KT 05/04 A2996 RMK A01 T00460041  RH  096%=      5-min Rain = 0
KCH1 181124Z 04002KT 05/04 A2996 RMK A01 T00480043  RH  097%=      5-min Rain = 0
KCH1 181125Z 05002KT 05/05 A2996 RMK A01 T00510046  RH  097%=      5-min Rain = 0
KCH1 181126Z 06001KT 05/05 A2995 RMK A01 T00540048  RH  096%=      5-min Rain = 0
KCH1 181127Z 07001KT 06/05 A2995 RMK A01 T00560049  RH  095%=      5-min Rain = 0
KCH1 181128Z 10000KT 06/05 A2995 RMK A01 T00590048  RH  093%=      5-min Rain = 0
KCH1 181129Z 10001KT 06/05 A2995 RMK A01 T00600045  RH  091%=      5-min Rain = 0
KCH1 181130Z 10001KT 06/04 A2995 RMK A01 T00600043  RH  089%=      5-min Rain = 0
KCH1 181131Z 10001KT 06/04 A2995 RMK A01 T00600043  RH  089%=      5-min Rain = 0
KCH1 181132Z 10000KT 06/04 A2995 RMK A01 T00600042  RH  089%=      5-min Rain = 0
KCH1 181133Z 00000KT 06/04 A2995 RMK A01 T00600042  RH  089%=      5-min Rain = 0
KCH1 181134Z 13001KT 06/04 A2995 RMK A01 T00600042  RH  088%=      5-min Rain = 0
KCH1 181135Z 13001KT 06/04 A2995 RMK A01 T00610043  RH  088%=      5-min Rain = 0
KCH1 181136Z 14001KT 06/04 A2995 RMK A01 T00610042  RH  088%=      5-min Rain = 0
KCH1 181137Z 14002KT 06/04 A2995 RMK A01 T00620042  RH  087%=      5-min Rain = 0
KCH1 181138Z 14002KT 06/04 A2995 RMK A01 T00620042  RH  087%=      5-min Rain = 0
KCH1 181139Z 13002KT 06/04 A2995 RMK A01 T00620042  RH  087%=      5-min Rain = 0
KCH1 181140Z 13003KT 06/04 A2995 RMK A01 T00620042  RH  087%=      5-min Rain = 0
KCH1 181141Z 13002KT 06/04 A2995 RMK A01 T00610042  RH  087%=      5-min Rain = 0
KCH1 181142Z 13003KT 06/04 A2994 RMK A01 T00600041  RH  087%=      5-min Rain = 0
KCH1 181143Z 12002KT 06/04 A2994 RMK A01 T00590040  RH  088%=      5-min Rain = 0
KCH1 181144Z 11002KT 06/04 A2994 RMK A01 T00580038  RH  087%=      5-min Rain = 0
KCH1 181145Z 11002KT 05/03 A2994 RMK A01 T00540032  RH  086%=      5-min Rain = 0
KCH1 181146Z 10002KT 05/03 A2994 RMK A01 T00500026  RH  085%=      5-min Rain = 0
KCH1 181147Z 10001KT 05/02 A2994 RMK A01 T00460024  RH  086%=      5-min Rain = 0
KCH1 181148Z 09001KT 04/03 A2994 RMK A01 T00440026  RH  088%=      5-min Rain = 0
KCH1 181149Z 08002KT 04/03 A2994 RMK A01 T00430028  RH  090%=      5-min Rain = 0
KCH1 181150Z 08002KT 04/03 A2994 RMK A01 T00420029  RH  091%=      5-min Rain = 0
KCH1 181151Z 08002KT 04/03 A2994 RMK A01 T00420030  RH  092%=      5-min Rain = 0
KCH1 181152Z 06002KT 04/03 A2994 RMK A01 T00410030  RH  092%=      5-min Rain = 0
KCH1 181153Z 05003KT 04/03 A2994 RMK A01 T00410031  RH  093%=      5-min Rain = 0
KCH1 181154Z 05002KT 04/03 A2994 RMK A01 T00410033  RH  094%=      5-min Rain = 0
KCH1 181155Z 05002KT 04/03 A2994 RMK A01 T00420034  RH  095%=      5-min Rain = 0
KCH1 181156Z 06003KT 04/03 A2994 RMK A01 T00420034  RH  095%=      5-min Rain = 0
KCH1 181157Z 05002KT 04/03 A2994 RMK A01 T00430034  RH  094%=      5-min Rain = 0
KCH1 181158Z 06002KT 04/03 A2994 RMK A01 T00420033  RH  094%=      5-min Rain = 0
KCH1 181159Z 05003KT 04/03 A2994 RMK A01 T00420033  RH  094%=      5-min Rain = 0
KCH1 181200Z 05002KT 04/03 A2994 RMK A01 T00420034  RH  095%=      5-min Rain = 0
KCH1 181201Z 05002KT 05/04 A2993 RMK A01 T00450038  RH  095%=      5-min Rain = 0
KCH1 181202Z 07001KT 05/04 A2994 RMK A01 T00460039  RH  095%=      5-min Rain = 0
KCH1 181203Z 09001KT 05/04 A2994 RMK A01 T00480040  RH  095%=      5-min Rain = 0
KCH1 181204Z 10001KT 05/04 A2993 RMK A01 T00490040  RH  094%=      5-min Rain = 0
KCH1 181205Z 12001KT 05/04 A2993 RMK A01 T00480038  RH  093%=      5-min Rain = 0
KCH1 181206Z 14002KT 05/04 A2993 RMK A01 T00470036  RH  092%=      5-min Rain = 0
KCH1 181207Z 15002KT 05/04 A2993 RMK A01 T00470035  RH  092%=      5-min Rain = 0
KCH1 181208Z 17003KT 05/04 A2993 RMK A01 T00470036  RH  093%=      5-min Rain = 0
KCH1 181209Z 17004KT 05/04 A2993 RMK A01 T00470036  RH  093%=      5-min Rain = 0
KCH1 181210Z 18004KT 05/04 A2993 RMK A01 T00470036  RH  093%=      5-min Rain = 0
KCH1 181211Z 18005KT 05/04 A2993 RMK A01 T00480037  RH  093%=      5-min Rain = 0
KCH1 181212Z 18005KT 05/04 A2993 RMK A01 T00490038  RH  093%=      5-min Rain = 0
KCH1 181213Z 18005KT 05/04 A2993 RMK A01 T00490038  RH  092%=      5-min Rain = 0
KCH1 181214Z 18004KT 05/04 A2993 RMK A01 T00500038  RH  092%=      5-min Rain = 0
KCH1 181215Z 18004KT 05/04 A2993 RMK A01 T00500038  RH  092%=      5-min Rain = 0
KCH1 181216Z 17005KT 05/04 A2993 RMK A01 T00510038  RH  091%=      5-min Rain = 0
KCH1 181217Z 17005KT 05/04 A2993 RMK A01 T00520038  RH  091%=      5-min Rain = 0
KCH1 181218Z 17004KT 05/04 A2993 RMK A01 T00530039  RH  091%=      5-min Rain = 0
KCH1 181219Z 17004KT 05/04 A2993 RMK A01 T00540039  RH  090%=      5-min Rain = 0
KCH1 181220Z 18003KT 06/04 A2993 RMK A01 T00550039  RH  090%=      5-min Rain = 0
KCH1 181221Z 19002KT 06/04 A2993 RMK A01 T00550038  RH  089%=      5-min Rain = 0
KCH1 181222Z 19002KT 06/04 A2993 RMK A01 T00550037  RH  088%=      5-min Rain = 0
KCH1 181223Z 19002KT 06/04 A2993 RMK A01 T00550037  RH  088%=      5-min Rain = 0
KCH1 181224Z 19002KT 06/04 A2993 RMK A01 T00550037  RH  088%=      5-min Rain = 0
KCH1 181225Z 18001KT 06/04 A2993 RMK A01 T00550037  RH  088%=      5-min Rain = 0
KCH1 181226Z 18001KT 05/03 A2993 RMK A01 T00530033  RH  087%=      5-min Rain = 0
KCH1 181227Z 18000KT 05/03 A2993 RMK A01 T00520033  RH  088%=      5-min Rain = 0
KCH1 181228Z 00000KT 05/03 A2993 RMK A01 T00510034  RH  089%=      5-min Rain = 0
KCH1 181229Z 00000KT 05/04 A2993 RMK A01 T00510035  RH  090%=      5-min Rain = 0
KCH1 181230Z 00000KT 05/04 A2993 RMK A01 T00510037  RH  090%=      5-min Rain = 0
KCH1 181231Z 00000KT 05/04 A2993 RMK A01 T00510036  RH  090%=      5-min Rain = 0
KCH1 181232Z 00000KT 05/04 A2993 RMK A01 T00520036  RH  090%=      5-min Rain = 0
KCH1 181233Z 00000KT 05/04 A2993 RMK A01 T00520037  RH  090%=      5-min Rain = 0
KCH1 181234Z 00000KT 05/04 A2993 RMK A01 T00520037  RH  090%=      5-min Rain = 0
KCH1 181235Z 18000KT 05/04 A2993 RMK A01 T00520038  RH  091%=      5-min Rain = 0
KCH1 181236Z 14001KT 05/04 A2993 RMK A01 T00520038  RH  091%=      5-min Rain = 0
KCH1 181237Z 13002KT 05/04 A2993 RMK A01 T00530038  RH  090%=      5-min Rain = 0
KCH1 181238Z 13002KT 05/04 A2993 RMK A01 T00530038  RH  090%=      5-min Rain = 0
KCH1 181239Z 12002KT 05/04 A2993 RMK A01 T00520035  RH  089%=      5-min Rain = 0
KCH1 181240Z 11002KT 05/03 A2993 RMK A01 T00470028  RH  087%=      5-min Rain = 0
KCH1 181241Z 08002KT 04/02 A2993 RMK A01 T00410021  RH  087%=      5-min Rain = 0
KCH1 181242Z 08002KT 04/02 A2993 RMK A01 T00360017  RH  088%=      5-min Rain = 0
KCH1 181243Z 08002KT 03/02 A2993 RMK A01 T00320016  RH  089%=      5-min Rain = 0
KCH1 181244Z 07003KT 03/02 A2993 RMK A01 T00300017  RH  091%=      5-min Rain = 0
KCH1 181245Z 07002KT 03/02 A2993 RMK A01 T00300019  RH  092%=      5-min Rain = 0
KCH1 181246Z 06002KT 03/02 A2993 RMK A01 T00290020  RH  094%=      5-min Rain = 0
KCH1 181247Z 06003KT 03/02 A2993 RMK A01 T00300022  RH  094%=      5-min Rain = 0
KCH1 181248Z 06003KT 03/02 A2993 RMK A01 T00300022  RH  095%=      5-min Rain = 0
KCH1 181249Z 05004KT 03/03 A2993 RMK A01 T00310025  RH  095%=      5-min Rain = 0
KCH1 181250Z 05004KT 03/03 A2993 RMK A01 T00320026  RH  096%=      5-min Rain = 0
KCH1 181251Z 04004KT 03/03 A2993 RMK A01 T00330028  RH  096%=      5-min Rain = 0
KCH1 181252Z 04004KT 04/03 A2993 RMK A01 T00350029  RH  096%=      5-min Rain = 0
KCH1 181253Z 04004KT 04/03 A2993 RMK A01 T00360030  RH  096%=      5-min Rain = 0
KCH1 181254Z 04004KT 04/03 A2993 RMK A01 T00370031  RH  096%=      5-min Rain = 0
KCH1 181255Z 02005KT 04/03 A2993 RMK A01 T00370032  RH  096%=      5-min Rain = 0
KCH1 181256Z 02004KT 04/04 A2993 RMK A01 T00400035  RH  097%=      5-min Rain = 0
KCH1 181257Z 03004KT 04/04 A2993 RMK A01 T00420037  RH  096%=      5-min Rain = 0
KCH1 181258Z 05004KT 05/04 A2993 RMK A01 T00450039  RH  096%=      5-min Rain = 0
KCH1 181259Z 06004KT 05/04 A2993 RMK A01 T00460038  RH  094%=      5-min Rain = 0
KCH1 181300Z 06004KT 05/04 A2993 RMK A01 T00460035  RH  093%=      5-min Rain = 0
KCH1 181301Z 07003KT 05/03 A2993 RMK A01 T00460032  RH  091%=      5-min Rain = 0
KCH1 181302Z 07005KT 05/03 A2993 RMK A01 T00450032  RH  091%=      5-min Rain = 0
KCH1 181303Z 08005KT 05/03 A2993 RMK A01 T00450033  RH  092%=      5-min Rain = 0
KCH1 181304Z 08005KT 05/03 A2993 RMK A01 T00460033  RH  092%=      5-min Rain = 0
KCH1 181305Z 08005KT 05/03 A2993 RMK A01 T00460033  RH  091%=      5-min Rain = 0
KCH1 181306Z 09005KT 05/03 A2993 RMK A01 T00450031  RH  090%=      5-min Rain = 0
KCH1 181307Z 08005KT 04/03 A2993 RMK A01 T00440030  RH  090%=      5-min Rain = 0
KCH1 181308Z 07005KT 04/03 A2993 RMK A01 T00440030  RH  091%=      5-min Rain = 0
KCH1 181309Z 07004KT 04/03 A2993 RMK A01 T00430030  RH  091%=      5-min Rain = 0
KCH1 181310Z 07004KT 04/03 A2993 RMK A01 T00420029  RH  091%=      5-min Rain = 0
KCH1 181311Z 06004KT 04/03 A2993 RMK A01 T00420029  RH  091%=      5-min Rain = 0
KCH1 181312Z 06004KT 04/03 A2993 RMK A01 T00420029  RH  092%=      5-min Rain = 0
KCH1 181313Z 07005KT 04/03 A2993 RMK A01 T00410030  RH  092%=      5-min Rain = 0
KCH1 181314Z 07005KT 04/03 A2993 RMK A01 T00420030  RH  092%=      5-min Rain = 0
KCH1 181315Z 07004KT 04/03 A2993 RMK A01 T00420030  RH  092%=      5-min Rain = 0
KCH1 181316Z 07004KT 04/03 A2993 RMK A01 T00410031  RH  093%=      5-min Rain = 0
KCH1 181317Z 07005KT 04/03 A2993 RMK A01 T00430033  RH  093%=      5-min Rain = 0
KCH1 181318Z 07004KT 04/03 A2993 RMK A01 T00430032  RH  093%=      5-min Rain = 0
KCH1 181319Z 07005KT 04/03 A2993 RMK A01 T00430030  RH  092%=      5-min Rain = 0
KCH1 181320Z 08004KT 04/03 A2993 RMK A01 T00420029  RH  092%=      5-min Rain = 0
KCH1 181321Z 07004KT 04/03 A2993 RMK A01 T00420030  RH  092%=      5-min Rain = 0
KCH1 181322Z 07004KT 04/03 A2993 RMK A01 T00420030  RH  092%=      5-min Rain = 0
KCH1 181323Z 07004KT 04/03 A2993 RMK A01 T00420030  RH  092%=      5-min Rain = 0
KCH1 181324Z 07004KT 04/03 A2993 RMK A01 T00420030  RH  092%=      5-min Rain = 0
KCH1 181325Z 07005KT 04/03 A2993 RMK A01 T00420030  RH  092%=      5-min Rain = 0
KCH1 181326Z 07005KT 04/03 A2993 RMK A01 T00420030  RH  092%=      5-min Rain = 0
KCH1 181327Z 07005KT 04/03 A2993 RMK A01 T00410029  RH  092%=      5-min Rain = 0
KCH1 181328Z 08005KT 04/03 A2993 RMK A01 T00410028  RH  092%=      5-min Rain = 0
KCH1 181329Z 07005KT 04/03 A2993 RMK A01 T00400027  RH  091%=      5-min Rain = 0
KCH1 181330Z 08005KT 04/03 A2993 RMK A01 T00380025  RH  091%=      5-min Rain = 0
KCH1 181331Z 08005KT 04/02 A2993 RMK A01 T00360022  RH  091%=      5-min Rain = 0
KCH1 181332Z 08005KT 03/02 A2993 RMK A01 T00340021  RH  092%=      5-min Rain = 0
KCH1 181333Z 08004KT 03/02 A2993 RMK A01 T00330023  RH  093%=      5-min Rain = 0
KCH1 181334Z 08004KT 03/02 A2993 RMK A01 T00330024  RH  094%=      5-min Rain = 0
KCH1 181335Z 08004KT 04/03 A2993 RMK A01 T00350027  RH  094%=      5-min Rain = 0
KCH1 181336Z 08005KT 04/03 A2992 RMK A01 T00360028  RH  095%=      5-min Rain = 0
KCH1 181337Z 08005KT 04/03 A2992 RMK A01 T00370031  RH  095%=      5-min Rain = 0
KCH1 181338Z 09005KT 04/03 A2992 RMK A01 T00400034  RH  096%=      5-min Rain = 0
KCH1 181339Z 09005KT 04/04 A2992 RMK A01 T00420035  RH  096%=      5-min Rain = 0
KCH1 181340Z 09005KT 04/04 A2992 RMK A01 T00430035  RH  095%=      5-min Rain = 0
KCH1 181341Z 09005KT 04/03 A2992 RMK A01 T00430034  RH  094%=      5-min Rain = 0
KCH1 181342Z 09004KT 04/03 A2992 RMK A01 T00430033  RH  093%=      5-min Rain = 0
KCH1 181343Z 09004KT 04/04 A2992 RMK A01 T00440035  RH  094%=      5-min Rain = 0
KCH1 181344Z 09004KT 05/04 A2992 RMK A01 T00450036  RH  094%=      5-min Rain = 0
KCH1 181345Z 10004KT 05/04 A2992 RMK A01 T00460036  RH  093%=      5-min Rain = 0
KCH1 181346Z 11004KT 05/04 A2992 RMK A01 T00470037  RH  093%=      5-min Rain = 0
KCH1 181347Z 11004KT 05/04 A2992 RMK A01 T00480038  RH  093%=      5-min Rain = 0
KCH1 181348Z 12004KT 05/04 A2992 RMK A01 T00490038  RH  093%=      5-min Rain = 0
KCH1 181349Z 12004KT 05/04 A2992 RMK A01 T00490037  RH  092%=      5-min Rain = 0
KCH1 181350Z 13004KT 05/04 A2992 RMK A01 T00500036  RH  091%=      5-min Rain = 0
KCH1 181351Z 13005KT 05/04 A2992 RMK A01 T00500037  RH  091%=      5-min Rain = 0
KCH1 181352Z 13005KT 05/04 A2991 RMK A01 T00510038  RH  091%=      5-min Rain = 0
KCH1 181353Z 13005KT 05/04 A2991 RMK A01 T00530039  RH  091%=      5-min Rain = 0
KCH1 181354Z 13005KT 05/04 A2991 RMK A01 T00540039  RH  090%=      5-min Rain = 0
KCH1 181355Z 14005KT 06/04 A2991 RMK A01 T00550041  RH  090%=      5-min Rain = 0
KCH1 181356Z 14005KT 06/04 A2991 RMK A01 T00570040  RH  089%=      5-min Rain = 0
KCH1 181357Z 14004KT 06/04 A2991 RMK A01 T00570040  RH  089%=      5-min Rain = 0
KCH1 181358Z 13004KT 06/04 A2991 RMK A01 T00560039  RH  089%=      5-min Rain = 0
KCH1 181359Z 12005KT 06/04 A2991 RMK A01 T00550038  RH  089%=      5-min Rain = 0
KCH1 181400Z 13004KT 05/04 A2991 RMK A01 T00540037  RH  089%=      5-min Rain = 0
KCH1 181401Z 13003KT 05/04 A2991 RMK A01 T00530037  RH  089%=      5-min Rain = 0
KCH1 181402Z 12003KT 05/04 A2991 RMK A01 T00530037  RH  090%=      5-min Rain = 0
KCH1 181403Z 12003KT 05/04 A2991 RMK A01 T00520036  RH  089%=      5-min Rain = 0
KCH1 181404Z 11004KT 05/04 A2991 RMK A01 T00510035  RH  090%=      5-min Rain = 0
KCH1 181405Z 12003KT 05/04 A2991 RMK A01 T00510035  RH  090%=      5-min Rain = 0
KCH1 181406Z 08002KT 05/04 A2991 RMK A01 T00500035  RH  090%=      5-min Rain = 0
KCH1 181407Z 07002KT 05/04 A2991 RMK A01 T00500035  RH  090%=      5-min Rain = 0
KCH1 181408Z 08002KT 05/03 A2991 RMK A01 T00490034  RH  090%=      5-min Rain = 0
KCH1 181409Z 08003KT 05/04 A2991 RMK A01 T00490035  RH  091%=      5-min Rain = 0
KCH1 181410Z 08003KT 05/04 A2991 RMK A01 T00490035  RH  091%=      5-min Rain = 0
KCH1 181411Z 07003KT 05/04 A2991 RMK A01 T00490035  RH  091%=      5-min Rain = 0
KCH1 181412Z 06003KT 05/04 A2991 RMK A01 T00490035  RH  091%=      5-min Rain = 0
KCH1 181413Z 06003KT 05/04 A2991 RMK A01 T00490035  RH  091%=      5-min Rain = 0
KCH1 181414Z 06003KT 05/04 A2991 RMK A01 T00490035  RH  091%=      5-min Rain = 0
KCH1 181415Z 06004KT 05/03 A2991 RMK A01 T00490034  RH  090%=      5-min Rain = 0
KCH1 181416Z 06003KT 05/03 A2991 RMK A01 T00480034  RH  091%=      5-min Rain = 0
KCH1 181417Z 06004KT 05/04 A2991 RMK A01 T00480035  RH  091%=      5-min Rain = 0
KCH1 181418Z 07004KT 05/04 A2991 RMK A01 T00490036  RH  091%=      5-min Rain = 0
KCH1 181419Z 07004KT 05/04 A2991 RMK A01 T00510038  RH  091%=      5-min Rain = 0
KCH1 181420Z 08004KT 05/04 A2991 RMK A01 T00520039  RH  091%=      5-min Rain = 0
KCH1 181421Z 09004KT 05/04 A2991 RMK A01 T00530039  RH  090%=      5-min Rain = 0
KCH1 181422Z 09004KT 05/04 A2991 RMK A01 T00530038  RH  090%=      5-min Rain = 0
KCH1 181423Z 09004KT 05/04 A2991 RMK A01 T00540038  RH  089%=      5-min Rain = 0
KCH1 181424Z 11004KT 05/04 A2991 RMK A01 T00530036  RH  089%=      5-min Rain = 0
KCH1 181425Z 10003KT 05/04 A2991 RMK A01 T00530036  RH  089%=      5-min Rain = 0
KCH1 181426Z 11003KT 05/04 A2991 RMK A01 T00530036  RH  089%=      5-min Rain = 0
KCH1 181427Z 11003KT 05/04 A2991 RMK A01 T00520035  RH  089%=      5-min Rain = 0
KCH1 181428Z 10003KT 05/03 A2991 RMK A01 T00510034  RH  089%=      5-min Rain = 0
KCH1 181429Z 10003KT 05/03 A2991 RMK A01 T00510034  RH  089%=      5-min Rain = 0
KCH1 181430Z 10003KT 05/04 A2991 RMK A01 T00510036  RH  090%=      5-min Rain = 0
KCH1 181431Z 09002KT 05/04 A2991 RMK A01 T00520038  RH  091%=      5-min Rain = 0
KCH1 181432Z 08002KT 05/04 A2991 RMK A01 T00540040  RH  091%=      5-min Rain = 0
KCH1 181433Z 07002KT 06/04 A2991 RMK A01 T00550040  RH  090%=      5-min Rain = 0
KCH1 181434Z 05002KT 06/04 A2991 RMK A01 T00560040  RH  090%=      5-min Rain = 0
KCH1 181435Z 02002KT 06/04 A2991 RMK A01 T00560039  RH  089%=      5-min Rain = 0
KCH1 181436Z 01003KT 06/04 A2992 RMK A01 T00570042  RH  090%=      5-min Rain = 0
KCH1 181437Z 01002KT 06/05 A2992 RMK A01 T00590046  RH  091%=      5-min Rain = 0
KCH1 181438Z 02001KT 06/05 A2992 RMK A01 T00620048  RH  091%=      5-min Rain = 0
KCH1 181439Z 01000KT 06/05 A2992 RMK A01 T00630049  RH  090%=      5-min Rain = 0
KCH1 181440Z 08000KT 07/05 A2991 RMK A01 T00650050  RH  090%=      5-min Rain = 0
KCH1 181441Z 13001KT 07/05 A2991 RMK A01 T00680052  RH  090%=      5-min Rain = 0
KCH1 181442Z 15003KT 07/05 A2991 RMK A01 T00710054  RH  089%=      5-min Rain = 0
KCH1 181443Z 16003KT 07/06 A2991 RMK A01 T00730055  RH  088%=      5-min Rain = 0
KCH1 181444Z 15002KT 08/05 A2991 RMK A01 T00750054  RH  087%=      5-min Rain = 0
KCH1 181445Z 16003KT 08/05 A2991 RMK A01 T00750053  RH  086%=      5-min Rain = 0
KCH1 181446Z 17003KT 08/05 A2991 RMK A01 T00760053  RH  085%=      5-min Rain = 0
KCH1 181447Z 18001KT 08/06 A2991 RMK A01 T00770055  RH  085%=      5-min Rain = 0
KCH1 181448Z 16002KT 08/05 A2991 RMK A01 T00780053  RH  084%=      5-min Rain = 0
KCH1 181449Z 18001KT 08/05 A2991 RMK A01 T00800054  RH  084%=      5-min Rain = 0
KCH1 181450Z 20000KT 08/06 A2991 RMK A01 T00810055  RH  084%=      5-min Rain = 0
KCH1 181451Z 19001KT 08/06 A2991 RMK A01 T00820056  RH  083%=      5-min Rain = 0
KCH1 181452Z 19000KT 08/06 A2991 RMK A01 T00830055  RH  083%=      5-min Rain = 0
KCH1 181453Z 18002KT 08/06 A2991 RMK A01 T00830055  RH  083%=      5-min Rain = 0
KCH1 181454Z 18002KT 08/05 A2991 RMK A01 T00820053  RH  082%=      5-min Rain = 0
KCH1 181455Z 18002KT 08/05 A2991 RMK A01 T00820054  RH  082%=      5-min Rain = 0
KCH1 181456Z 17003KT 08/05 A2991 RMK A01 T00810054  RH  083%=      5-min Rain = 0
KCH1 181457Z 18002KT 08/06 A2991 RMK A01 T00820056  RH  084%=      5-min Rain = 0
KCH1 181458Z 17003KT 08/06 A2991 RMK A01 T00810056  RH  084%=      5-min Rain = 0
KCH1 181459Z 16003KT 08/06 A2991 RMK A01 T00810055  RH  084%=      5-min Rain = 0
KCH1 181500Z 16002KT 08/06 A2991 RMK A01 T00810056  RH  084%=      5-min Rain = 0
KCH1 181501Z 16002KT 08/06 A2991 RMK A01 T00800056  RH  085%=      5-min Rain = 0
KCH1 181502Z 18001KT 08/06 A2991 RMK A01 T00810056  RH  084%=      5-min Rain = 0
KCH1 181503Z 00000KT 08/06 A2991 RMK A01 T00830057  RH  084%=      5-min Rain = 0
KCH1 181504Z 27000KT 08/06 A2991 RMK A01 T00840059  RH  084%=      5-min Rain = 0
KCH1 181505Z 26000KT 09/06 A2991 RMK A01 T00850059  RH  084%=      5-min Rain = 0
KCH1 181506Z 30001KT 08/06 A2991 RMK A01 T00840058  RH  084%=      5-min Rain = 0
KCH1 181507Z 29000KT 08/06 A2991 RMK A01 T00840058  RH  083%=      5-min Rain = 0
KCH1 181508Z 20001KT 09/06 A2991 RMK A01 T00850058  RH  083%=      5-min Rain = 0
KCH1 181509Z 18002KT 09/06 A2991 RMK A01 T00850059  RH  083%=      5-min Rain = 0
KCH1 181510Z 19002KT 09/06 A2991 RMK A01 T00860058  RH  083%=      5-min Rain = 0
KCH1 181511Z 19002KT 09/06 A2991 RMK A01 T00860059  RH  083%=      5-min Rain = 0
KCH1 181512Z 18003KT 09/06 A2991 RMK A01 T00860060  RH  084%=      5-min Rain = 0
KCH1 181513Z 17004KT 09/06 A2991 RMK A01 T00870062  RH  084%=      5-min Rain = 0
KCH1 181514Z 16004KT 09/06 A2991 RMK A01 T00880064  RH  085%=      5-min Rain = 0
KCH1 181515Z 16005KT 09/07 A299 RMK A01 T00900067  RH  085%=      5-min Rain = 0
KCH1 181516Z 17005KT 09/07 A299 RMK A01 T00910068  RH  085%=      5-min Rain = 0
KCH1 181517Z 16005KT 09/07 A299 RMK A01 T00930070  RH  085%=      5-min Rain = 0
KCH1 181518Z 16006KT 10/07 A299 RMK A01 T00960072  RH  085%=      5-min Rain = 0
KCH1 181519Z 16008KT 10/07 A2989 RMK A01 T00970069  RH  083%=      5-min Rain = 0
KCH1 181520Z 17006KT 10/07 A2989 RMK A01 T00970068  RH  082%=      5-min Rain = 0
KCH1 181521Z 17006KT 10/07 A2989 RMK A01 T00970069  RH  082%=      5-min Rain = 0
KCH1 181522Z 17003KT 10/07 A2989 RMK A01 T00980071  RH  083%=      5-min Rain = 0
KCH1 181523Z 19004KT 10/07 A299 RMK A01 T01000070  RH  082%=      5-min Rain = 0
KCH1 181524Z 20003KT 10/07 A299 RMK A01 T01000068  RH  081%=      5-min Rain = 0
KCH1 181525Z 21002KT 10/07 A299 RMK A01 T01000067  RH  080%=      5-min Rain = 0
KCH1 181526Z 21003KT 10/07 A299 RMK A01 T01000067  RH  080%=      5-min Rain = 0
KCH1 181527Z 20003KT 10/07 A299 RMK A01 T01000067  RH  080%=      5-min Rain = 0
KCH1 181528Z 19002KT 10/07 A2989 RMK A01 T01000067  RH  080%=      5-min Rain = 0
KCH1 181529Z 19003KT 10/07 A2989 RMK A01 T01000067  RH  080%=      5-min Rain = 0
KCH1 181530Z 22002KT 10/07 A299 RMK A01 T01000067  RH  080%=      5-min Rain = 0
KCH1 181531Z 24001KT 10/07 A299 RMK A01 T01010066  RH  079%=      5-min Rain = 0
KCH1 181532Z 25001KT 10/07 A299 RMK A01 T01010066  RH  079%=      5-min Rain = 0
KCH1 181533Z 27001KT 10/07 A299 RMK A01 T01020066  RH  079%=      5-min Rain = 0
KCH1 181534Z 29001KT 10/07 A299 RMK A01 T01020066  RH  078%=      5-min Rain = 0
KCH1 181535Z 28001KT 10/07 A299 RMK A01 T01020066  RH  078%=      5-min Rain = 0
KCH1 181536Z 27001KT 10/07 A299 RMK A01 T01040067  RH  078%=      5-min Rain = 0
KCH1 181537Z 23001KT 11/07 A299 RMK A01 T01060069  RH  078%=      5-min Rain = 0
KCH1 181538Z 20002KT 11/07 A299 RMK A01 T01080068  RH  077%=      5-min Rain = 0
KCH1 181539Z 20002KT 11/07 A2989 RMK A01 T01100070  RH  076%=      5-min Rain = 0
KCH1 181540Z 18002KT 11/07 A2989 RMK A01 T01120073  RH  076%=      5-min Rain = 0
KCH1 181541Z 18003KT 12/07 A2989 RMK A01 T01150072  RH  075%=      5-min Rain = 0
KCH1 181542Z 17003KT 12/08 A2989 RMK A01 T01170076  RH  076%=      5-min Rain = 0
KCH1 181543Z 19003KT 12/08 A2989 RMK A01 T01200077  RH  075%=      5-min Rain = 0
KCH1 181544Z 18004KT 12/07 A2989 RMK A01 T01210074  RH  073%=      5-min Rain = 0
KCH1 181545Z 18004KT 12/07 A2989 RMK A01 T01220072  RH  072%=      5-min Rain = 0
KCH1 181546Z 20004KT 12/07 A2989 RMK A01 T01220073  RH  072%=      5-min Rain = 0
KCH1 181547Z 21004KT 12/07 A2989 RMK A01 T01230072  RH  071%=      5-min Rain = 0
KCH1 181548Z 19002KT 12/07 A2989 RMK A01 T01240074  RH  071%=      5-min Rain = 0
KCH1 181549Z 20003KT 13/08 A2989 RMK A01 T01250075  RH  072%=      5-min Rain = 0
KCH1 181550Z 20004KT 13/07 A2989 RMK A01 T01260074  RH  071%=      5-min Rain = 0
KCH1 181551Z 19002KT 13/08 A2989 RMK A01 T01270075  RH  071%=      5-min Rain = 0
KCH1 181552Z 19001KT 13/08 A2989 RMK A01 T01280078  RH  072%=      5-min Rain = 0
KCH1 181553Z 21002KT 13/08 A2989 RMK A01 T01300079  RH  071%=      5-min Rain = 0
KCH1 181554Z 19003KT 13/08 A2989 RMK A01 T01320078  RH  070%=      5-min Rain = 0
KCH1 181555Z 20003KT 13/08 A2989 RMK A01 T01340082  RH  071%=      5-min Rain = 0
KCH1 181556Z 21005KT 14/08 A2989 RMK A01 T01360083  RH  070%=      5-min Rain = 0
KCH1 181557Z 21005KT 14/08 A2989 RMK A01 T01370078  RH  068%=      5-min Rain = 0
KCH1 181558Z 20004KT 14/08 A2989 RMK A01 T01370076  RH  067%=      5-min Rain = 0
KCH1 181559Z 21003KT 14/08 A2989 RMK A01 T01360078  RH  068%=      5-min Rain = 0
KCH1 181600Z 21006KT 14/08 A2989 RMK A01 T01360078  RH  068%=      5-min Rain = 0
KCH1 181601Z 21007KT 14/07 A2989 RMK A01 T01360074  RH  066%=      5-min Rain = 0
KCH1 181602Z 22004KT 14/07 A2989 RMK A01 T01350074  RH  067%=      5-min Rain = 0
KCH1 181603Z 22004KT 14/08 A2989 RMK A01 T01360076  RH  067%=      5-min Rain = 0
KCH1 181604Z 22004KT 14/08 A2989 RMK A01 T01380078  RH  067%=      5-min Rain = 0
KCH1 181605Z 22003KT 14/08 A2989 RMK A01 T01390078  RH  066%=      5-min Rain = 0
KCH1 181606Z 22005KT 14/08 A2989 RMK A01 T01400077  RH  066%=      5-min Rain = 0
KCH1 181607Z 22005KT 14/08 A2989 RMK A01 T01410076  RH  065%=      5-min Rain = 0
KCH1 181608Z 21004KT 14/08 A2989 RMK A01 T01410076  RH  065%=      5-min Rain = 0
KCH1 181609Z 21004KT 14/08 A2989 RMK A01 T01410076  RH  065%=      5-min Rain = 0
KCH1 181610Z 21004KT 14/08 A2989 RMK A01 T01430078  RH  065%=      5-min Rain = 0
KCH1 181611Z 22005KT 14/08 A2989 RMK A01 T01440078  RH  064%=      5-min Rain = 0
KCH1 181612Z 22005KT 15/08 A2989 RMK A01 T01460077  RH  063%=      5-min Rain = 0
KCH1 181613Z 23005KT 15/08 A299 RMK A01 T01460076  RH  063%=      5-min Rain = 0
KCH1 181614Z 24003KT 15/08 A299 RMK A01 T01470080  RH  064%=      5-min Rain = 0
KCH1 181615Z 23001KT 15/08 A299 RMK A01 T01490079  RH  063%=      5-min Rain = 0
KCH1 181616Z 24003KT 15/08 A2989 RMK A01 T01500079  RH  062%=      5-min Rain = 0
KCH1 181617Z 21004KT 15/08 A2989 RMK A01 T01520080  RH  062%=      5-min Rain = 0
KCH1 181618Z 22003KT 15/08 A2989 RMK A01 T01530079  RH  061%=      5-min Rain = 0
KCH1 181619Z 22005KT 15/08 A2989 RMK A01 T01540081  RH  062%=      5-min Rain = 0
KCH1 181620Z 22005KT 15/08 A2989 RMK A01 T01540079  RH  061%=      5-min Rain = 0
KCH1 181621Z 24004KT 16/08 A2989 RMK A01 T01550078  RH  060%=      5-min Rain = 0
KCH1 181622Z 24004KT 16/08 A2989 RMK A01 T01550079  RH  061%=      5-min Rain = 0
KCH1 181623Z 23004KT 16/08 A2989 RMK A01 T01550079  RH  060%=      5-min Rain = 0
KCH1 181624Z 22003KT 16/08 A2989 RMK A01 T01550080  RH  061%=      5-min Rain = 0
KCH1 181625Z 21003KT 16/08 A2989 RMK A01 T01570082  RH  061%=      5-min Rain = 0
KCH1 181626Z 23004KT 16/08 A2989 RMK A01 T01600083  RH  060%=      5-min Rain = 0
KCH1 181627Z 23005KT 16/08 A299 RMK A01 T01610081  RH  059%=      5-min Rain = 0
KCH1 181628Z 23005KT 16/08 A299 RMK A01 T01610080  RH  059%=      5-min Rain = 0
KCH1 181629Z 24004KT 16/08 A299 RMK A01 T01600081  RH  059%=      5-min Rain = 0
KCH1 181630Z 23006KT 16/08 A2989 RMK A01 T01600082  RH  060%=      5-min Rain = 0
KCH1 181631Z 20005KT 16/08 A299 RMK A01 T01600080  RH  059%=      5-min Rain = 0
KCH1 181632Z 22006KT 16/08 A2989 RMK A01 T01600082  RH  060%=      5-min Rain = 0
KCH1 181633Z 22005KT 16/08 A2989 RMK A01 T01610081  RH  059%=      5-min Rain = 0
KCH1 181634Z 21003KT 16/08 A2989 RMK A01 T01620084  RH  060%=      5-min Rain = 0
KCH1 181635Z 20002KT 16/08 A2989 RMK A01 T01630084  RH  059%=      5-min Rain = 0
KCH1 181636Z 19003KT 17/08 A2989 RMK A01 T01650083  RH  058%=      5-min Rain = 0
KCH1 181637Z 20004KT 17/09 A2989 RMK A01 T01670087  RH  059%=      5-min Rain = 0
KCH1 181638Z 22005KT 17/09 A2989 RMK A01 T01680086  RH  058%=      5-min Rain = 0
KCH1 181639Z 21005KT 17/08 A2989 RMK A01 T01670083  RH  058%=      5-min Rain = 0
KCH1 181640Z 20004KT 17/09 A2989 RMK A01 T01660086  RH  059%=      5-min Rain = 0
KCH1 181641Z 21004KT 17/09 A2989 RMK A01 T01660085  RH  058%=      5-min Rain = 0
KCH1 181642Z 20002KT 17/08 A2989 RMK A01 T01660083  RH  058%=      5-min Rain = 0
KCH1 181643Z 19003KT 17/09 A2989 RMK A01 T01660085  RH  059%=      5-min Rain = 0
KCH1 181644Z 18002KT 17/09 A2989 RMK A01 T01660085  RH  059%=      5-min Rain = 0
KCH1 181645Z 19002KT 17/09 A2989 RMK A01 T01670086  RH  059%=      5-min Rain = 0
KCH1 181646Z 21005KT 17/09 A2989 RMK A01 T01680086  RH  058%=      5-min Rain = 0
KCH1 181647Z 21004KT 17/09 A2989 RMK A01 T01690085  RH  058%=      5-min Rain = 0
KCH1 181648Z 21004KT 17/08 A2989 RMK A01 T01680084  RH  058%=      5-min Rain = 0
KCH1 181649Z 24003KT 17/08 A2989 RMK A01 T01670084  RH  058%=      5-min Rain = 0
KCH1 181650Z 23003KT 17/09 A2989 RMK A01 T01670086  RH  059%=      5-min Rain = 0
KCH1 181651Z 20003KT 17/09 A2989 RMK A01 T01670086  RH  059%=      5-min Rain = 0
KCH1 181652Z 22002KT 17/09 A2989 RMK A01 T01670086  RH  059%=      5-min Rain = 0
KCH1 181653Z 23001KT 17/09 A2989 RMK A01 T01670087  RH  059%=      5-min Rain = 0
KCH1 181654Z 19003KT 17/09 A2989 RMK A01 T01670088  RH  059%=      5-min Rain = 0
KCH1 181655Z 21002KT 17/09 A2989 RMK A01 T01670086  RH  059%=      5-min Rain = 0
KCH1 181656Z 21003KT 17/09 A2989 RMK A01 T01690088  RH  059%=      5-min Rain = 0
KCH1 181657Z 20002KT 17/09 A2989 RMK A01 T01720089  RH  058%=      5-min Rain = 0
KCH1 181658Z 20001KT 17/09 A2989 RMK A01 T01740088  RH  057%=      5-min Rain = 0
KCH1 181659Z 22002KT 18/09 A2989 RMK A01 T01760089  RH  056%=      5-min Rain = 0
KCH1 181700Z 24002KT 18/09 A2989 RMK A01 T01780091  RH  057%=      5-min Rain = 0
KCH1 181701Z 20002KT 18/09 A2989 RMK A01 T01800091  RH  056%=      5-min Rain = 0
KCH1 181702Z 21002KT 18/09 A2989 RMK A01 T01820090  RH  055%=      5-min Rain = 0
KCH1 181703Z 20001KT 18/09 A2989 RMK A01 T01830091  RH  055%=      5-min Rain = 0
KCH1 181704Z 18002KT 19/09 A2989 RMK A01 T01850089  RH  054%=      5-min Rain = 0
KCH1 181705Z 23001KT 19/09 A2989 RMK A01 T01870091  RH  054%=      5-min Rain = 0
KCH1 181706Z 29002KT 19/09 A2989 RMK A01 T01880092  RH  054%=      5-min Rain = 0
KCH1 181707Z 20002KT 19/09 A2989 RMK A01 T01890093  RH  054%=      5-min Rain = 0
KCH1 181708Z 19005KT 19/09 A2989 RMK A01 T01900090  RH  052%=      5-min Rain = 0
KCH1 181709Z 20007KT 19/09 A2989 RMK A01 T01890090  RH  053%=      5-min Rain = 0
KCH1 181710Z 21004KT 19/09 A2989 RMK A01 T01880089  RH  053%=      5-min Rain = 0
KCH1 181711Z 21006KT 19/09 A2988 RMK A01 T01870090  RH  053%=      5-min Rain = 0
KCH1 181712Z 21006KT 19/09 A2988 RMK A01 T01890090  RH  053%=      5-min Rain = 0
KCH1 181713Z 22005KT 19/09 A2988 RMK A01 T01900089  RH  052%=      5-min Rain = 0
KCH1 181714Z 22004KT 19/09 A2988 RMK A01 T01900090  RH  052%=      5-min Rain = 0
KCH1 181715Z 21007KT 19/09 A2988 RMK A01 T01910089  RH  052%=      5-min Rain = 0
KCH1 181716Z 20006KT 19/09 A2988 RMK A01 T01910089  RH  052%=      5-min Rain = 0
KCH1 181717Z 21007KT 19/09 A2988 RMK A01 T01900089  RH  052%=      5-min Rain = 0
KCH1 181718Z 20007KT 19/09 A2988 RMK A01 T01900087  RH  051%=      5-min Rain = 0
KCH1 181719Z 20005KT 19/09 A2988 RMK A01 T01900089  RH  052%=      5-min Rain = 0
KCH1 181720Z 20008KT 19/09 A2988 RMK A01 T01920090  RH  052%=      5-min Rain = 0
KCH1 181721Z 21007KT 19/09 A2988 RMK A01 T01940088  RH  050%=      5-min Rain = 0
KCH1 181722Z 19006KT 19/09 A2987 RMK A01 T01940089  RH  051%=      5-min Rain = 0
KCH1 181723Z 20006KT 19/09 A2987 RMK A01 T01940090  RH  051%=      5-min Rain = 0
KCH1 181724Z 22004G9KT 20/09 A2987 RMK A01 T01970092  RH  051%=      5-min Rain = 0
KCH1 181725Z 23008KT 20/09 A2987 RMK A01 T01980089  RH  049%=      5-min Rain = 0
KCH1 181726Z 23008KT 20/09 A2987 RMK A01 T01970088  RH  049%=      5-min Rain = 0
KCH1 181727Z 22007KT 20/09 A2987 RMK A01 T01950087  RH  050%=      5-min Rain = 0
KCH1 181728Z 21005KT 20/09 A2987 RMK A01 T01950088  RH  050%=      5-min Rain = 0
KCH1 181729Z 21003KT 20/09 A2987 RMK A01 T01950089  RH  050%=      5-min Rain = 0
KCH1 181730Z 21006KT 20/09 A2987 RMK A01 T01970089  RH  049%=      5-min Rain = 0
KCH1 181731Z 24009KT 20/09 A2987 RMK A01 T01990088  RH  049%=      5-min Rain = 0
KCH1 181732Z 25011G17KT 20/08 A2986 RMK A01 T02000084  RH  047%=      5-min Rain = 0
KCH1 181733Z 21006KT 20/09 A2986 RMK A01 T02010085  RH  047%=      5-min Rain = 0
KCH1 181734Z 21008KT 20/09 A2986 RMK A01 T02020086  RH  047%=      5-min Rain = 0
KCH1 181735Z 21011KT 20/08 A2986 RMK A01 T02030083  RH  046%=      5-min Rain = 0
KCH1 181736Z 22011KT 20/08 A2986 RMK A01 T02030083  RH  046%=      5-min Rain = 0
KCH1 181737Z 24009KT 20/08 A2986 RMK A01 T02040084  RH  046%=      5-min Rain = 0
KCH1 181738Z 24009G14KT 21/09 A2986 RMK A01 T02050085  RH  046%=      5-min Rain = 0
KCH1 181739Z 22009G14KT 21/08 A2986 RMK A01 T02050084  RH  046%=      5-min Rain = 0
KCH1 181740Z 22008KT 21/09 A2985 RMK A01 T02050086  RH  046%=      5-min Rain = 0
KCH1 181741Z 22008KT 21/09 A2985 RMK A01 T02060086  RH  046%=      5-min Rain = 0
KCH1 181742Z 23009KT 21/09 A2985 RMK A01 T02070085  RH  045%=      5-min Rain = 0
KCH1 181743Z 22009KT 21/09 A2985 RMK A01 T02070087  RH  046%=      5-min Rain = 0
KCH1 181744Z 25010KT 21/09 A2985 RMK A01 T02090086  RH  045%=      5-min Rain = 0
KCH1 181745Z 23009KT 21/09 A2985 RMK A01 T02090085  RH  045%=      5-min Rain = 0
KCH1 181746Z 22011G18KT 21/09 A2985 RMK A01 T02100086  RH  045%=      5-min Rain = 0
KCH1 181747Z 22014KT 21/08 A2984 RMK A01 T02100082  RH  044%=      5-min Rain = 0
KCH1 181748Z 23013KT 21/08 A2984 RMK A01 T02100081  RH  043%=      5-min Rain = 0
KCH1 181749Z 23011KT 21/08 A2984 RMK A01 T02100082  RH  044%=      5-min Rain = 0
KCH1 181750Z 23009KT 21/08 A2984 RMK A01 T02100083  RH  044%=      5-min Rain = 0
KCH1 181751Z 23011KT 21/08 A2984 RMK A01 T02100083  RH  044%=      5-min Rain = 0
KCH1 181752Z 24009KT 21/08 A2984 RMK A01 T02110083  RH  044%=      5-min Rain = 0
KCH1 181753Z 22013KT 21/08 A2984 RMK A01 T02120082  RH  043%=      5-min Rain = 0
KCH1 181754Z 23009KT 21/08 A2984 RMK A01 T02120081  RH  043%=      5-min Rain = 0
KCH1 181755Z 23011G17KT 21/08 A2984 RMK A01 T02120078  RH  042%=      5-min Rain = 0
KCH1 181756Z 23007KT 21/08 A2984 RMK A01 T02120080  RH  043%=      5-min Rain = 0
KCH1 181757Z 23012G17KT 21/08 A2984 RMK A01 T02120081  RH  043%=      5-min Rain = 0
KCH1 181758Z 22014G19KT 21/08 A2984 RMK A01 T02130076  RH  041%=      5-min Rain = 0
KCH1 181759Z 23012G18KT 21/08 A2984 RMK A01 T02130076  RH  041%=      5-min Rain = 0
KCH1 181800Z 22014G19KT 21/08 A2984 RMK A01 T02120078  RH  042%=      5-min Rain = 0
KCH1 181801Z 23013KT 21/08 A2984 RMK A01 T02120077  RH  042%=      5-min Rain = 0
KCH1 181802Z 24012KT 21/08 A2984 RMK A01 T02130077  RH  041%=      5-min Rain = 0
KCH1 181803Z 25014KT 21/07 A2984 RMK A01 T02140074  RH  041%=      5-min Rain = 0
KCH1 181804Z 25011KT 21/08 A2984 RMK A01 T02140076  RH  041%=      5-min Rain = 0
KCH1 181805Z 26008G14KT 22/08 A2984 RMK A01 T02150077  RH  041%=      5-min Rain = 0
KCH1 181806Z 25010KT 22/08 A2984 RMK A01 T02160076  RH  040%=      5-min Rain = 0
KCH1 181807Z 25014KT 22/08 A2983 RMK A01 T02170075  RH  040%=      5-min Rain = 0
KCH1 181808Z 25012G17KT 22/07 A2983 RMK A01 T02180074  RH  040%=      5-min Rain = 0
KCH1 181809Z 25012KT 22/07 A2983 RMK A01 T02170074  RH  039%=      5-min Rain = 0
KCH1 181810Z 25012KT 22/08 A2983 RMK A01 T02180075  RH  040%=      5-min Rain = 0
KCH1 181811Z 23009KT 22/08 A2983 RMK A01 T02180076  RH  040%=      5-min Rain = 0
KCH1 181812Z 24014G19KT 22/08 A2983 RMK A01 T02190077  RH  040%=      5-min Rain = 0
KCH1 181813Z 24015KT 22/07 A2983 RMK A01 T02190071  RH  038%=      5-min Rain = 0
KCH1 181814Z 24013G19KT 22/07 A2983 RMK A01 T02180068  RH  038%=      5-min Rain = 0
KCH1 181815Z 23012KT 22/07 A2983 RMK A01 T02170071  RH  039%=      5-min Rain = 0
KCH1 181816Z 24011KT 22/07 A2982 RMK A01 T02170072  RH  039%=      5-min Rain = 0
KCH1 181817Z 24012G18KT 22/08 A2982 RMK A01 T02180076  RH  040%=      5-min Rain = 0
KCH1 181818Z 23014KT 22/07 A2982 RMK A01 T02190072  RH  039%=      5-min Rain = 0
KCH1 181819Z 25012KT 22/07 A2982 RMK A01 T02190070  RH  038%=      5-min Rain = 0
KCH1 181820Z 22016G23KT 22/07 A2982 RMK A01 T02190071  RH  038%=      5-min Rain = 0
KCH1 181821Z 23012G17KT 22/07 A2982 RMK A01 T02200069  RH  038%=      5-min Rain = 0
KCH1 181822Z 25012G18KT 22/07 A2982 RMK A01 T02200070  RH  038%=      5-min Rain = 0
KCH1 181823Z 24014KT 22/07 A2982 RMK A01 T02210069  RH  037%=      5-min Rain = 0
KCH1 181824Z 25016G21KT 22/07 A2981 RMK A01 T02220065  RH  036%=      5-min Rain = 0
KCH1 181825Z 25011G16KT 22/07 A2981 RMK A01 T02220066  RH  036%=      5-min Rain = 0
KCH1 181826Z 25009G14KT 22/07 A2981 RMK A01 T02220067  RH  037%=      5-min Rain = 0
KCH1 181827Z 24012KT 23/07 A2981 RMK A01 T02250069  RH  037%=      5-min Rain = 0
KCH1 181828Z 25010KT 23/07 A2981 RMK A01 T02260067  RH  036%=      5-min Rain = 0
KCH1 181829Z 24015G20KT 23/07 A2981 RMK A01 T02260068  RH  036%=      5-min Rain = 0
KCH1 181830Z 24015G22KT 23/07 A298 RMK A01 T02260066  RH  035%=      5-min Rain = 0
KCH1 181831Z 25022G28KT 23/06 A298 RMK A01 T02250061  RH  035%=      5-min Rain = 0
KCH1 181832Z 26019G25KT 23/06 A298 RMK A01 T02250060  RH  034%=      5-min Rain = 0
KCH1 181833Z 26018KT 22/06 A298 RMK A01 T02240061  RH  035%=      5-min Rain = 0
KCH1 181834Z 25015G20KT 22/06 A298 RMK A01 T02240058  RH  034%=      5-min Rain = 0
KCH1 181835Z 25015G20KT 23/06 A298 RMK A01 T02250058  RH  034%=      5-min Rain = 0
KCH1 181836Z 26010KT 23/06 A298 RMK A01 T02260061  RH  034%=      5-min Rain = 0
KCH1 181837Z 25013KT 23/06 A298 RMK A01 T02280063  RH  034%=      5-min Rain = 0
KCH1 181838Z 23011KT 23/06 A2979 RMK A01 T02290061  RH  034%=      5-min Rain = 0
KCH1 181839Z 24014G24KT 23/06 A2979 RMK A01 T02290062  RH  034%=      5-min Rain = 0
KCH1 181840Z 24017G25KT 23/06 A2979 RMK A01 T02300059  RH  033%=      5-min Rain = 0
KCH1 181841Z 25017G23KT 23/06 A2979 RMK A01 T02290058  RH  033%=      5-min Rain = 0
KCH1 181842Z 25015G21KT 23/06 A2979 RMK A01 T02290055  RH  032%=      5-min Rain = 0
KCH1 181843Z 24012G17KT 23/06 A2979 RMK A01 T02290056  RH  033%=      5-min Rain = 0
KCH1 181844Z 24015KT 23/06 A2979 RMK A01 T02300058  RH  033%=      5-min Rain = 0
KCH1 181845Z 25016KT 23/06 A2979 RMK A01 T02300056  RH  032%=      5-min Rain = 0
KCH1 181846Z 24014G19KT 23/06 A2979 RMK A01 T02310055  RH  032%=      5-min Rain = 0
KCH1 181847Z 24013G20KT 23/06 A2979 RMK A01 T02310057  RH  032%=      5-min Rain = 0
KCH1 181848Z 25013G18KT 23/06 A2978 RMK A01 T02320056  RH  032%=      5-min Rain = 0
KCH1 181849Z 24011G18KT 23/06 A2978 RMK A01 T02320056  RH  032%=      5-min Rain = 0
KCH1 181850Z 25016G22KT 23/05 A2978 RMK A01 T02330053  RH  031%=      5-min Rain = 0
KCH1 181851Z 25020G25KT 23/05 A2978 RMK A01 T02330051  RH  031%=      5-min Rain = 0
KCH1 181852Z 24015G21KT 23/05 A2978 RMK A01 T02320051  RH  031%=      5-min Rain = 0
KCH1 181853Z 24019G26KT 23/05 A2977 RMK A01 T02320049  RH  031%=      5-min Rain = 0
KCH1 181854Z 25015G20KT 23/05 A2978 RMK A01 T02320051  RH  031%=      5-min Rain = 0
KCH1 181855Z 24017G24KT 23/05 A2977 RMK A01 T02320048  RH  030%=      5-min Rain = 0
KCH1 181856Z 24014G20KT 23/05 A2977 RMK A01 T02330048  RH  030%=      5-min Rain = 0
KCH1 181857Z 23017G22KT 23/05 A2977 RMK A01 T02330048  RH  030%=      5-min Rain = 0
KCH1 181858Z 25014G22KT 23/05 A2977 RMK A01 T02330049  RH  030%=      5-min Rain = 0
KCH1 181859Z 26017G25KT 24/05 A2977 RMK A01 T02350054  RH  031%=      5-min Rain = 0
KCH1 181900Z 24018G23KT 24/05 A2977 RMK A01 T02360050  RH  030%=      5-min Rain = 0
KCH1 181901Z 25015KT 24/05 A2977 RMK A01 T02350050  RH  030%=      5-min Rain = 0
KCH1 181902Z 25013G19KT 23/05 A2977 RMK A01 T02340051  RH  030%=      5-min Rain = 0
KCH1 181903Z 24019G25KT 23/05 A2976 RMK A01 T02340050  RH  030%=      5-min Rain = 0
KCH1 181904Z 25019KT 24/05 A2976 RMK A01 T02350049  RH  030%=      5-min Rain = 0
KCH1 181905Z 25012G18KT 23/05 A2976 RMK A01 T02340051  RH  031%=      5-min Rain = 0
KCH1 181906Z 25014KT 24/05 A2976 RMK A01 T02350053  RH  031%=      5-min Rain = 0
KCH1 181907Z 24012G18KT 24/05 A2976 RMK A01 T02370052  RH  030%=      5-min Rain = 0
KCH1 181908Z 24010KT 24/06 A2975 RMK A01 T02390055  RH  031%=      5-min Rain = 0
KCH1 181909Z 26014G19KT 24/06 A2975 RMK A01 T02400057  RH  031%=      5-min Rain = 0
KCH1 181910Z 25017KT 24/05 A2975 RMK A01 T02400049  RH  029%=      5-min Rain = 0
KCH1 181911Z 25013KT 24/05 A2975 RMK A01 T02390052  RH  030%=      5-min Rain = 0
KCH1 181912Z 25014G21KT 24/05 A2975 RMK A01 T02390050  RH  029%=      5-min Rain = 0
KCH1 181913Z 25013G19KT 24/05 A2975 RMK A01 T02400050  RH  029%=      5-min Rain = 0
KCH1 181914Z 24013KT 24/05 A2975 RMK A01 T02410048  RH  029%=      5-min Rain = 0
KCH1 181915Z 24014G20KT 24/05 A2974 RMK A01 T02410047  RH  028%=      5-min Rain = 0
KCH1 181916Z 26014G22KT 24/05 A2974 RMK A01 T02400045  RH  028%=      5-min Rain = 0
KCH1 181917Z 25016G25KT 24/04 A2974 RMK A01 T02390041  RH  028%=      5-min Rain = 0
KCH1 181918Z 25019G24KT 24/04 A2975 RMK A01 T02390040  RH  027%=      5-min Rain = 0
KCH1 181919Z 25018G24KT 24/04 A2974 RMK A01 T02390039  RH  027%=      5-min Rain = 0
KCH1 181920Z 26015G25KT 24/04 A2974 RMK A01 T02390043  RH  028%=      5-min Rain = 0
KCH1 181921Z 26021G27KT 24/04 A2974 RMK A01 T02390041  RH  028%=      5-min Rain = 0
KCH1 181922Z 25013G22KT 24/04 A2974 RMK A01 T02380043  RH  028%=      5-min Rain = 0
KCH1 181923Z 24014G20KT 24/05 A2974 RMK A01 T02370046  RH  029%=      5-min Rain = 0
KCH1 181924Z 25012G17KT 24/05 A2974 RMK A01 T02390046  RH  029%=      5-min Rain = 0
KCH1 181925Z 23012G19KT 24/05 A2974 RMK A01 T02400048  RH  029%=      5-min Rain = 0
KCH1 181926Z 25016G21KT 24/05 A2974 RMK A01 T02400045  RH  028%=      5-min Rain = 0
KCH1 181927Z 26019G25KT 24/05 A2974 RMK A01 T02400046  RH  028%=      5-min Rain = 0
KCH1 181928Z 26020G26KT 24/04 A2974 RMK A01 T02380044  RH  028%=      5-min Rain = 0
KCH1 181929Z 25022G30KT 24/04 A2974 RMK A01 T02360041  RH  028%=      5-min Rain = 0
KCH1 181930Z 25019G25KT 23/04 A2974 RMK A01 T02340042  RH  029%=      5-min Rain = 0
KCH1 181931Z 25020G26KT 23/04 A2973 RMK A01 T02340043  RH  029%=      5-min Rain = 0
KCH1 181932Z 24017G26KT 23/04 A2973 RMK A01 T02340042  RH  029%=      5-min Rain = 0
KCH1 181933Z 24021G27KT 24/04 A2973 RMK A01 T02350041  RH  028%=      5-min Rain = 0
KCH1 181934Z 24021G27KT 24/04 A2973 RMK A01 T02360041  RH  028%=      5-min Rain = 0
KCH1 181935Z 25018G28KT 24/04 A2973 RMK A01 T02360042  RH  028%=      5-min Rain = 0
KCH1 181936Z 24019KT 24/04 A2973 RMK A01 T02370044  RH  028%=      5-min Rain = 0
KCH1 181937Z 24015G22KT 24/05 A2973 RMK A01 T02380045  RH  028%=      5-min Rain = 0
KCH1 181938Z 24017G23KT 24/05 A2973 RMK A01 T02400047  RH  029%=      5-min Rain = 0
KCH1 181939Z 25019G24KT 24/05 A2973 RMK A01 T02400045  RH  028%=      5-min Rain = 0
KCH1 181940Z 24013G18KT 24/05 A2973 RMK A01 T02400047  RH  029%=      5-min Rain = 0
KCH1 181941Z 25018G25KT 24/05 A2973 RMK A01 T02410048  RH  029%=      5-min Rain = 0
KCH1 181942Z 24018G23KT 24/05 A2972 RMK A01 T02410046  RH  028%=      5-min Rain = 0
KCH1 181943Z 24014KT 24/05 A2972 RMK A01 T02410048  RH  029%=      5-min Rain = 0
KCH1 181944Z 25014G21KT 24/05 A2972 RMK A01 T02410048  RH  029%=      5-min Rain = 0
KCH1 181945Z 25016G21KT 24/05 A2972 RMK A01 T02420048  RH  029%=      5-min Rain = 0
KCH1 181946Z 24014G22KT 24/05 A2972 RMK A01 T02420048  RH  028%=      5-min Rain = 0
KCH1 181947Z 23016G22KT 24/05 A2972 RMK A01 T02420046  RH  028%=      5-min Rain = 0
KCH1 181948Z 25014G19KT 24/05 A2972 RMK A01 T02420049  RH  029%=      5-min Rain = 0
KCH1 181949Z 24012KT 24/05 A2972 RMK A01 T02440051  RH  029%=      5-min Rain = 0
KCH1 181950Z 24019G27KT 25/05 A2972 RMK A01 T02450049  RH  028%=      5-min Rain = 0
KCH1 181951Z 25020KT 25/05 A2972 RMK A01 T02450045  RH  027%=      5-min Rain = 0
KCH1 181952Z 24020G25KT 25/04 A2972 RMK A01 T02450040  RH  027%=      5-min Rain = 0
KCH1 181953Z 24017G22KT 24/04 A2972 RMK A01 T02440040  RH  027%=      5-min Rain = 0
KCH1 181954Z 26021G28KT 24/04 A2972 RMK A01 T02440040  RH  027%=      5-min Rain = 0
KCH1 181955Z 25026G31KT 24/03 A2972 RMK A01 T02440034  RH  025%=      5-min Rain = 0
KCH1 181956Z 26018G29KT 24/03 A2972 RMK A01 T02430030  RH  025%=      5-min Rain = 0
KCH1 181957Z 26023G34KT 24/04 A2972 RMK A01 T02430035  RH  026%=      5-min Rain = 0
KCH1 181958Z 25022G28KT 24/03 A2972 RMK A01 T02430030  RH  025%=      5-min Rain = 0
KCH1 181959Z 25022G29KT 24/03 A2972 RMK A01 T02420030  RH  025%=      5-min Rain = 0
KCH1 182000Z 26016G23KT 24/03 A2972 RMK A01 T02420034  RH  026%=      5-min Rain = 0
KCH1 182001Z 25017G29KT 24/04 A2972 RMK A01 T02430035  RH  026%=      5-min Rain = 0
KCH1 182002Z 25017G22KT 24/03 A2972 RMK A01 T02430033  RH  025%=      5-min Rain = 0
KCH1 182003Z 25026KT 24/03 A2971 RMK A01 T02420030  RH  025%=      5-min Rain = 0
KCH1 182004Z 25023G31KT 24/03 A2972 RMK A01 T02390030  RH  026%=      5-min Rain = 0
KCH1 182005Z 26020KT 24/03 A2972 RMK A01 T02380031  RH  026%=      5-min Rain = 0
KCH1 182006Z 25018G26KT 24/03 A2972 RMK A01 T02380031  RH  026%=      5-min Rain = 0
KCH1 182007Z 26017KT 24/03 A2971 RMK A01 T02380032  RH  026%=      5-min Rain = 0
KCH1 182008Z 25023G32KT 24/03 A2971 RMK A01 T02370031  RH  026%=      5-min Rain = 0
KCH1 182009Z 25016G23KT 24/03 A2971 RMK A01 T02350033  RH  027%=      5-min Rain = 0
KCH1 182010Z 24019G26KT 24/03 A2971 RMK A01 T02350032  RH  027%=      5-min Rain = 0
KCH1 182011Z 25021G27KT 24/03 A2971 RMK A01 T02350032  RH  027%=      5-min Rain = 0
KCH1 182012Z 25015G21KT 24/03 A2971 RMK A01 T02350033  RH  027%=      5-min Rain = 0
KCH1 182013Z 25014G20KT 24/04 A2971 RMK A01 T02370037  RH  027%=      5-min Rain = 0
KCH1 182014Z 26021G30KT 24/04 A2971 RMK A01 T02390037  RH  027%=      5-min Rain = 0
KCH1 182015Z 25024KT 24/04 A2971 RMK A01 T02390035  RH  026%=      5-min Rain = 0
KCH1 182016Z 26022G30KT 24/03 A297 RMK A01 T02390033  RH  026%=      5-min Rain = 0
KCH1 182017Z 25021G26KT 24/03 A297 RMK A01 T02380034  RH  026%=      5-min Rain = 0
KCH1 182018Z 26016G21KT 24/04 A2971 RMK A01 T02370036  RH  027%=      5-min Rain = 0
KCH1 182019Z 26018G24KT 24/04 A297 RMK A01 T02380035  RH  027%=      5-min Rain = 0
KCH1 182020Z 27018G24KT 24/04 A297 RMK A01 T02380035  RH  027%=      5-min Rain = 0
KCH1 182021Z 26016KT 24/04 A297 RMK A01 T02380036  RH  027%=      5-min Rain = 0
KCH1 182022Z 26014G20KT 24/04 A297 RMK A01 T02390038  RH  027%=      5-min Rain = 0
KCH1 182023Z 27015G24KT 24/04 A297 RMK A01 T02400040  RH  027%=      5-min Rain = 0
KCH1 182024Z 26014G23KT 24/04 A297 RMK A01 T02410038  RH  027%=      5-min Rain = 0
KCH1 182025Z 25016G22KT 24/04 A297 RMK A01 T02410038  RH  027%=      5-min Rain = 0
KCH1 182026Z 25011G17KT 24/04 A297 RMK A01 T02410038  RH  027%=      5-min Rain = 0
KCH1 182027Z 24014G20KT 24/04 A2969 RMK A01 T02430041  RH  027%=      5-min Rain = 0
KCH1 182028Z 26011G18KT 24/04 A2969 RMK A01 T02440040  RH  027%=      5-min Rain = 0
KCH1 182029Z 25012G18KT 24/04 A2969 RMK A01 T02440040  RH  027%=      5-min Rain = 0
KCH1 182030Z 26015KT 24/04 A297 RMK A01 T02420039  RH  027%=      5-min Rain = 0
KCH1 182031Z 26018G24KT 24/04 A297 RMK A01 T02400039  RH  027%=      5-min Rain = 0
KCH1 182032Z 26013G18KT 24/04 A297 RMK A01 T02390038  RH  027%=      5-min Rain = 0
KCH1 182033Z 25018G26KT 24/04 A297 RMK A01 T02380036  RH  027%=      5-min Rain = 0
KCH1 182034Z 26022G29KT 24/03 A297 RMK A01 T02380031  RH  026%=      5-min Rain = 0
KCH1 182035Z 27019G26KT 24/03 A297 RMK A01 T02370030  RH  026%=      5-min Rain = 0
KCH1 182036Z 27017G25KT 24/03 A297 RMK A01 T02350030  RH  026%=      5-min Rain = 0
KCH1 182037Z 27017G25KT 23/03 A297 RMK A01 T02340029  RH  026%=      5-min Rain = 0
KCH1 182038Z 27017G25KT 23/03 A2969 RMK A01 T02320027  RH  026%=      5-min Rain = 0
KCH1 182039Z 27019G25KT 23/03 A2969 RMK A01 T02310026  RH  026%=      5-min Rain = 0
KCH1 182040Z 27020G26KT 23/03 A2969 RMK A01 T02300025  RH  026%=      5-min Rain = 0
KCH1 182041Z 27017KT 23/03 A297 RMK A01 T02300025  RH  026%=      5-min Rain = 0
KCH1 182042Z 26015G23KT 23/03 A297 RMK A01 T02290026  RH  026%=      5-min Rain = 0
KCH1 182043Z 26016G22KT 23/03 A297 RMK A01 T02290027  RH  027%=      5-min Rain = 0
KCH1 182044Z 26019KT 23/03 A297 RMK A01 T02290026  RH  026%=      5-min Rain = 0
KCH1 182045Z 27016KT 23/03 A2969 RMK A01 T02290025  RH  026%=      5-min Rain = 0
KCH1 182046Z 27014KT 23/03 A2969 RMK A01 T02290026  RH  026%=      5-min Rain = 0
KCH1 182047Z 28013KT 23/03 A297 RMK A01 T02290028  RH  027%=      5-min Rain = 0
KCH1 182048Z 28011KT 23/03 A297 RMK A01 T02280030  RH  027%=      5-min Rain = 0
KCH1 182049Z 26011G16KT 23/03 A297 RMK A01 T02270032  RH  028%=      5-min Rain = 0
KCH1 182050Z 26013KT 23/03 A297 RMK A01 T02270029  RH  027%=      5-min Rain = 0
KCH1 182051Z 27014G19KT 23/03 A2969 RMK A01 T02270028  RH  027%=      5-min Rain = 0
KCH1 182052Z 26012G18KT 23/03 A2969 RMK A01 T02270027  RH  027%=      5-min Rain = 0
KCH1 182053Z 27016KT 23/03 A2969 RMK A01 T02270028  RH  027%=      5-min Rain = 0
KCH1 182054Z 27015G20KT 23/03 A297 RMK A01 T02270028  RH  027%=      5-min Rain = 0
KCH1 182055Z 27013G19KT 23/03 A297 RMK A01 T02270029  RH  027%=      5-min Rain = 0
KCH1 182056Z 26013G20KT 23/03 A297 RMK A01 T02270031  RH  028%=      5-min Rain = 0
KCH1 182057Z 27012KT 23/03 A297 RMK A01 T02260031  RH  028%=      5-min Rain = 0
KCH1 182058Z 25016KT 23/03 A297 RMK A01 T02260031  RH  028%=      5-min Rain = 0
KCH1 182059Z 25019G24KT 23/03 A297 RMK A01 T02260030  RH  028%=      5-min Rain = 0
KCH1 182100Z 26013KT 23/03 A297 RMK A01 T02260029  RH  027%=      5-min Rain = 0
KCH1 182101Z 26019G25KT 23/03 A297 RMK A01 T02260030  RH  028%=      5-min Rain = 0
KCH1 182102Z 26019G25KT 23/03 A297 RMK A01 T02270028  RH  027%=      5-min Rain = 0
KCH1 182103Z 26016G23KT 23/03 A297 RMK A01 T02270030  RH  027%=      5-min Rain = 0
KCH1 182104Z 27016G21KT 23/03 A297 RMK A01 T02270029  RH  027%=      5-min Rain = 0
KCH1 182105Z 26013G19KT 23/03 A297 RMK A01 T02270031  RH  028%=      5-min Rain = 0
KCH1 182106Z 27014G21KT 23/03 A297 RMK A01 T02270031  RH  028%=      5-min Rain = 0
KCH1 182107Z 27015G21KT 23/03 A297 RMK A01 T02270031  RH  028%=      5-min Rain = 0
KCH1 182108Z 26013G18KT 23/03 A297 RMK A01 T02270031  RH  028%=      5-min Rain = 0
KCH1 182109Z 26016G21KT 23/03 A297 RMK A01 T02270031  RH  028%=      5-min Rain = 0
KCH1 182110Z 26017G24KT 23/03 A297 RMK A01 T02270029  RH  027%=      5-min Rain = 0
KCH1 182111Z 26017G22KT 23/03 A297 RMK A01 T02270030  RH  027%=      5-min Rain = 0
KCH1 182112Z 25019G25KT 23/03 A297 RMK A01 T02270027  RH  027%=      5-min Rain = 0
KCH1 182113Z 26013KT 23/03 A297 RMK A01 T02270029  RH  027%=      5-min Rain = 0
KCH1 182114Z 26019G26KT 23/03 A297 RMK A01 T02270029  RH  027%=      5-min Rain = 0
KCH1 182115Z 26014G20KT 23/03 A297 RMK A01 T02270028  RH  027%=      5-min Rain = 0
KCH1 182116Z 26017KT 23/03 A297 RMK A01 T02270028  RH  027%=      5-min Rain = 0
KCH1 182117Z 26015G22KT 23/03 A297 RMK A01 T02270028  RH  027%=      5-min Rain = 0
KCH1 182118Z 25014KT 23/03 A297 RMK A01 T02270028  RH  027%=      5-min Rain = 0
KCH1 182119Z 26012G18KT 23/03 A2969 RMK A01 T02260031  RH  028%=      5-min Rain = 0
KCH1 182120Z 25014G22KT 23/03 A2969 RMK A01 T02270032  RH  028%=      5-min Rain = 0
KCH1 182121Z 26013KT 23/03 A2969 RMK A01 T02270030  RH  028%=      5-min Rain = 0
KCH1 182122Z 26016G21KT 23/03 A2969 RMK A01 T02270031  RH  028%=      5-min Rain = 0
KCH1 182123Z 25011G17KT 23/03 A2969 RMK A01 T02270031  RH  028%=      5-min Rain = 0
KCH1 182124Z 26015G20KT 23/03 A2969 RMK A01 T02270031  RH  028%=      5-min Rain = 0
KCH1 182125Z 26018KT 23/03 A2969 RMK A01 T02260029  RH  027%=      5-min Rain = 0
KCH1 182126Z 26016G22KT 23/03 A2969 RMK A01 T02260028  RH  027%=      5-min Rain = 0
KCH1 182127Z 26017KT 23/03 A2969 RMK A01 T02260028  RH  027%=      5-min Rain = 0
KCH1 182128Z 26013G19KT 23/03 A2969 RMK A01 T02260029  RH  027%=      5-min Rain = 0
KCH1 182129Z 26014KT 23/03 A2969 RMK A01 T02260031  RH  028%=      5-min Rain = 0
KCH1 182130Z 25016KT 23/03 A2969 RMK A01 T02260029  RH  028%=      5-min Rain = 0
KCH1 182131Z 26016KT 23/03 A2969 RMK A01 T02260028  RH  027%=      5-min Rain = 0
KCH1 182132Z 25015KT 23/03 A2969 RMK A01 T02270029  RH  027%=      5-min Rain = 0
KCH1 182133Z 25014G19KT 23/03 A2969 RMK A01 T02270029  RH  027%=      5-min Rain = 0
KCH1 182134Z 27010KT 23/03 A2969 RMK A01 T02290031  RH  027%=      5-min Rain = 0
KCH1 182135Z 26012KT 23/03 A2969 RMK A01 T02310032  RH  027%=      5-min Rain = 0
KCH1 182136Z 26014KT 23/03 A2969 RMK A01 T02320031  RH  027%=      5-min Rain = 0
KCH1 182137Z 26016G25KT 23/03 A2969 RMK A01 T02320030  RH  027%=      5-min Rain = 0
KCH1 182138Z 26012G17KT 23/03 A2969 RMK A01 T02320027  RH  026%=      5-min Rain = 0
KCH1 182139Z 25011G16KT 23/03 A2969 RMK A01 T02320029  RH  027%=      5-min Rain = 0
KCH1 182140Z 26011KT 23/03 A2969 RMK A01 T02320032  RH  027%=      5-min Rain = 0
KCH1 182141Z 25012G21KT 23/03 A2969 RMK A01 T02320032  RH  027%=      5-min Rain = 0
KCH1 182142Z 26015G22KT 23/03 A297 RMK A01 T02330029  RH  026%=      5-min Rain = 0
KCH1 182143Z 25015G21KT 23/03 A2969 RMK A01 T02320028  RH  026%=      5-min Rain = 0
KCH1 182144Z 25013KT 23/03 A297 RMK A01 T02320028  RH  026%=      5-min Rain = 0
KCH1 182145Z 26013G21KT 23/03 A297 RMK A01 T02320029  RH  026%=      5-min Rain = 0
KCH1 182146Z 25016G23KT 23/03 A2969 RMK A01 T02320026  RH  026%=      5-min Rain = 0
KCH1 182147Z 25019KT 23/03 A2969 RMK A01 T02320025  RH  026%=      5-min Rain = 0
KCH1 182148Z 26019G24KT 23/02 A2969 RMK A01 T02320024  RH  025%=      5-min Rain = 0
KCH1 182149Z 27015G20KT 23/02 A2969 RMK A01 T02320024  RH  026%=      5-min Rain = 0
KCH1 182150Z 27017KT 23/02 A2969 RMK A01 T02320024  RH  026%=      5-min Rain = 0
KCH1 182151Z 27015KT 23/02 A2969 RMK A01 T02320023  RH  025%=      5-min Rain = 0
KCH1 182152Z 27019G24KT 23/02 A2969 RMK A01 T02320022  RH  025%=      5-min Rain = 0
KCH1 182153Z 27020G26KT 23/02 A297 RMK A01 T02320022  RH  025%=      5-min Rain = 0
KCH1 182154Z 27015G22KT 23/02 A297 RMK A01 T02320022  RH  025%=      5-min Rain = 0
KCH1 182155Z 26014KT 23/02 A297 RMK A01 T02310023  RH  025%=      5-min Rain = 0
KCH1 182156Z 25015KT 23/02 A297 RMK A01 T02310023  RH  025%=      5-min Rain = 0
KCH1 182157Z 26015G22KT 23/03 A297 RMK A01 T02320025  RH  026%=      5-min Rain = 0
KCH1 182158Z 26017KT 23/02 A297 RMK A01 T02330023  RH  025%=      5-min Rain = 0
KCH1 182159Z 26020G30KT 23/02 A2969 RMK A01 T02330022  RH  025%=      5-min Rain = 0
KCH1 182200Z 26019G25KT 23/02 A2969 RMK A01 T02320021  RH  025%=      5-min Rain = 0
KCH1 182201Z 27017G25KT 23/02 A2969 RMK A01 T02320021  RH  025%=      5-min Rain = 0
KCH1 182202Z 26017G23KT 23/02 A2969 RMK A01 T02320021  RH  025%=      5-min Rain = 0
KCH1 182203Z 26015G22KT 23/02 A2969 RMK A01 T02320022  RH  025%=      5-min Rain = 0
KCH1 182204Z 26014KT 23/02 A2969 RMK A01 T02310021  RH  025%=      5-min Rain = 0
KCH1 182205Z 27011G19KT 23/02 A2969 RMK A01 T02320023  RH  025%=      5-min Rain = 0
KCH1 182206Z 27016G22KT 23/02 A2969 RMK A01 T02320024  RH  025%=      5-min Rain = 0
KCH1 182207Z 27014G19KT 23/02 A2969 RMK A01 T02320021  RH  025%=      5-min Rain = 0
KCH1 182208Z 26015KT 23/02 A2969 RMK A01 T02320023  RH  025%=      5-min Rain = 0
KCH1 182209Z 26022G27KT 23/02 A2969 RMK A01 T02320022  RH  025%=      5-min Rain = 0
KCH1 182210Z 26018G23KT 23/02 A2969 RMK A01 T02320021  RH  025%=      5-min Rain = 0
KCH1 182211Z 26018KT 23/02 A2969 RMK A01 T02320022  RH  025%=      5-min Rain = 0
KCH1 182212Z 25020G25KT 23/02 A2969 RMK A01 T02310020  RH  025%=      5-min Rain = 0
KCH1 182213Z 26016KT 23/02 A2969 RMK A01 T02310020  RH  025%=      5-min Rain = 0
KCH1 182214Z 25017G23KT 23/02 A2969 RMK A01 T02310022  RH  025%=      5-min Rain = 0
KCH1 182215Z 26016G22KT 23/02 A2969 RMK A01 T02310021  RH  025%=      5-min Rain = 0
KCH1 182216Z 27012G18KT 23/02 A297 RMK A01 T02310023  RH  026%=      5-min Rain = 0
KCH1 182217Z 27016G22KT 23/02 A2969 RMK A01 T02310023  RH  025%=      5-min Rain = 0
KCH1 182218Z 27014G19KT 23/02 A297 RMK A01 T02310022  RH  025%=      5-min Rain = 0
KCH1 182219Z 26013G20KT 23/02 A297 RMK A01 T02310022  RH  025%=      5-min Rain = 0
KCH1 182220Z 26010KT 23/03 A297 RMK A01 T02310025  RH  026%=      5-min Rain = 0
KCH1 182221Z 26013KT 23/03 A297 RMK A01 T02300025  RH  026%=      5-min Rain = 0
KCH1 182222Z 25013KT 23/03 A297 RMK A01 T02290025  RH  026%=      5-min Rain = 0
KCH1 182223Z 26010KT 23/03 A2969 RMK A01 T02280026  RH  027%=      5-min Rain = 0
KCH1 182224Z 25015KT 23/03 A2969 RMK A01 T02270025  RH  027%=      5-min Rain = 0
KCH1 182225Z 26017KT 23/02 A2969 RMK A01 T02260024  RH  026%=      5-min Rain = 0
KCH1 182226Z 26019G29KT 23/02 A2969 RMK A01 T02260023  RH  026%=      5-min Rain = 0
KCH1 182227Z 26015KT 23/02 A297 RMK A01 T02260024  RH  026%=      5-min Rain = 0
KCH1 182228Z 26016G22KT 23/02 A2969 RMK A01 T02260023  RH  026%=      5-min Rain = 0
KCH1 182229Z 25015KT 23/02 A2969 RMK A01 T02270023  RH  026%=      5-min Rain = 0
KCH1 182230Z 26014G19KT 23/02 A2969 RMK A01 T02280023  RH  026%=      5-min Rain = 0
KCH1 182231Z 25012G17KT 23/03 A2969 RMK A01 T02280025  RH  026%=      5-min Rain = 0
KCH1 182232Z 26013G18KT 23/03 A2969 RMK A01 T02290026  RH  026%=      5-min Rain = 0
KCH1 182233Z 26012G19KT 23/03 A2969 RMK A01 T02290026  RH  026%=      5-min Rain = 0
KCH1 182234Z 26014KT 23/03 A2969 RMK A01 T02300025  RH  026%=      5-min Rain = 0
KCH1 182235Z 26011G16KT 23/03 A2969 RMK A01 T02290027  RH  026%=      5-min Rain = 0
KCH1 182236Z 26017KT 23/03 A2969 RMK A01 T02280026  RH  026%=      5-min Rain = 0
KCH1 182237Z 27012G19KT 23/03 A297 RMK A01 T02280026  RH  027%=      5-min Rain = 0
KCH1 182238Z 27015G23KT 23/02 A2969 RMK A01 T02270024  RH  026%=      5-min Rain = 0
KCH1 182239Z 27014G21KT 23/03 A2969 RMK A01 T02270025  RH  026%=      5-min Rain = 0
KCH1 182240Z 26015G20KT 23/02 A2969 RMK A01 T02250024  RH  027%=      5-min Rain = 0
KCH1 182241Z 26015G20KT 23/02 A2969 RMK A01 T02250023  RH  026%=      5-min Rain = 0
KCH1 182242Z 27016G21KT 23/02 A2969 RMK A01 T02250023  RH  027%=      5-min Rain = 0
KCH1 182243Z 27017KT 22/02 A2969 RMK A01 T02240022  RH  026%=      5-min Rain = 0
KCH1 182244Z 27017KT 22/02 A2969 RMK A01 T02240022  RH  026%=      5-min Rain = 0
KCH1 182245Z 26014G21KT 22/02 A297 RMK A01 T02240023  RH  027%=      5-min Rain = 0
KCH1 182246Z 27017G23KT 22/02 A297 RMK A01 T02230023  RH  027%=      5-min Rain = 0
KCH1 182247Z 27014KT 22/02 A297 RMK A01 T02230022  RH  027%=      5-min Rain = 0
KCH1 182248Z 26013G19KT 22/02 A297 RMK A01 T02220024  RH  027%=      5-min Rain = 0
KCH1 182249Z 26010KT 22/02 A297 RMK A01 T02220024  RH  027%=      5-min Rain = 0
KCH1 182250Z 26011KT 22/03 A297 RMK A01 T02220026  RH  028%=      5-min Rain = 0
KCH1 182251Z 26012G18KT 22/03 A297 RMK A01 T02220026  RH  028%=      5-min Rain = 0
KCH1 182252Z 26012G18KT 22/03 A297 RMK A01 T02210026  RH  028%=      5-min Rain = 0
KCH1 182253Z 26015KT 22/02 A297 RMK A01 T02210024  RH  027%=      5-min Rain = 0
KCH1 182254Z 26017G23KT 22/02 A2969 RMK A01 T02210023  RH  027%=      5-min Rain = 0
KCH1 182255Z 26014G19KT 22/02 A2969 RMK A01 T02210022  RH  027%=      5-min Rain = 0
KCH1 182256Z 27015KT 22/02 A2969 RMK A01 T02220022  RH  027%=      5-min Rain = 0
KCH1 182257Z 26015KT 22/02 A2969 RMK A01 T02230022  RH  027%=      5-min Rain = 0
KCH1 182258Z 26014G22KT 22/02 A2969 RMK A01 T02240023  RH  027%=      5-min Rain = 0
KCH1 182259Z 27015G25KT 22/02 A2969 RMK A01 T02240022  RH  026%=      5-min Rain = 0
KCH1 182300Z 26015KT 22/02 A2969 RMK A01 T02240022  RH  026%=      5-min Rain = 0
KCH1 182301Z 26011KT 23/02 A297 RMK A01 T02250024  RH  027%=      5-min Rain = 0
KCH1 182302Z 27016G22KT 23/02 A2969 RMK A01 T02250024  RH  027%=      5-min Rain = 0
KCH1 182303Z 26017G22KT 23/02 A2969 RMK A01 T02250022  RH  026%=      5-min Rain = 0
KCH1 182304Z 26013G19KT 23/02 A2969 RMK A01 T02250023  RH  026%=      5-min Rain = 0
KCH1 182305Z 26015G20KT 23/02 A2969 RMK A01 T02250023  RH  027%=      5-min Rain = 0
KCH1 182306Z 26016G21KT 23/02 A297 RMK A01 T02250023  RH  026%=      5-min Rain = 0
KCH1 182307Z 26009KT 23/02 A297 RMK A01 T02250024  RH  027%=      5-min Rain = 0
KCH1 182308Z 25012KT 23/03 A2969 RMK A01 T02250026  RH  027%=      5-min Rain = 0
KCH1 182309Z 26016G24KT 22/03 A2969 RMK A01 T02240025  RH  027%=      5-min Rain = 0
KCH1 182310Z 26013G20KT 22/02 A2969 RMK A01 T02240024  RH  027%=      5-min Rain = 0
KCH1 182311Z 25016KT 22/03 A2969 RMK A01 T02240025  RH  027%=      5-min Rain = 0
KCH1 182312Z 25016G21KT 22/02 A2969 RMK A01 T02240024  RH  027%=      5-min Rain = 0
KCH1 182313Z 26018KT 22/03 A2969 RMK A01 T02240025  RH  027%=      5-min Rain = 0
KCH1 182314Z 25010G15KT 22/03 A2969 RMK A01 T02240026  RH  027%=      5-min Rain = 0
KCH1 182315Z 25013KT 22/03 A2969 RMK A01 T02220027  RH  028%=      5-min Rain = 0
KCH1 182316Z 25015G23KT 22/03 A2969 RMK A01 T02220026  RH  027%=      5-min Rain = 0
KCH1 182317Z 25016KT 22/03 A2969 RMK A01 T02220026  RH  028%=      5-min Rain = 0
KCH1 182318Z 26016G21KT 22/03 A2969 RMK A01 T02210025  RH  027%=      5-min Rain = 0
KCH1 182319Z 25013G19KT 22/03 A2969 RMK A01 T02210025  RH  027%=      5-min Rain = 0
KCH1 182320Z 25011KT 22/03 A2969 RMK A01 T02210026  RH  028%=      5-min Rain = 0
KCH1 182321Z 25012KT 22/03 A2969 RMK A01 T02200027  RH  028%=      5-min Rain = 0
KCH1 182322Z 25012KT 22/03 A297 RMK A01 T02200027  RH  028%=      5-min Rain = 0
KCH1 182323Z 25010KT 22/03 A297 RMK A01 T02190028  RH  029%=      5-min Rain = 0
KCH1 182324Z 26009G15KT 22/03 A297 RMK A01 T02180029  RH  029%=      5-min Rain = 0
KCH1 182325Z 25011KT 22/03 A297 RMK A01 T02180028  RH  029%=      5-min Rain = 0
KCH1 182326Z 25014G20KT 22/03 A297 RMK A01 T02180028  RH  029%=      5-min Rain = 0
KCH1 182327Z 26017G22KT 22/03 A2969 RMK A01 T02180025  RH  028%=      5-min Rain = 0
KCH1 182328Z 26013G19KT 22/03 A297 RMK A01 T02190026  RH  028%=      5-min Rain = 0
KCH1 182329Z 26011G16KT 22/03 A297 RMK A01 T02190026  RH  028%=      5-min Rain = 0
KCH1 182330Z 26013KT 22/03 A2969 RMK A01 T02180026  RH  028%=      5-min Rain = 0
KCH1 182331Z 26014KT 22/03 A2969 RMK A01 T02180026  RH  028%=      5-min Rain = 0
KCH1 182332Z 25013G18KT 22/03 A2969 RMK A01 T02180027  RH  028%=      5-min Rain = 0
KCH1 182333Z 25013G18KT 22/03 A2969 RMK A01 T02170025  RH  028%=      5-min Rain = 0
KCH1 182334Z 26011KT 22/03 A297 RMK A01 T02180026  RH  028%=      5-min Rain = 0
KCH1 182335Z 26012G18KT 22/03 A297 RMK A01 T02170027  RH  028%=      5-min Rain = 0
KCH1 182336Z 25012KT 22/03 A2969 RMK A01 T02170026  RH  028%=      5-min Rain = 0
KCH1 182337Z 26012KT 22/03 A297 RMK A01 T02170026  RH  028%=      5-min Rain = 0
KCH1 182338Z 25010KT 22/03 A297 RMK A01 T02160027  RH  029%=      5-min Rain = 0
KCH1 182339Z 25012KT 22/03 A2969 RMK A01 T02160027  RH  029%=      5-min Rain = 0
KCH1 182340Z 25010KT 22/03 A2969 RMK A01 T02150027  RH  029%=      5-min Rain = 0
KCH1 182341Z 26011G16KT 22/03 A297 RMK A01 T02150027  RH  029%=      5-min Rain = 0
KCH1 182342Z 24011KT 22/03 A2969 RMK A01 T02150026  RH  029%=      5-min Rain = 0
KCH1 182343Z 25010KT 22/03 A2969 RMK A01 T02150026  RH  029%=      5-min Rain = 0
KCH1 182344Z 25011KT 22/03 A2969 RMK A01 T02150026  RH  029%=      5-min Rain = 0
KCH1 182345Z 24009KT 22/03 A2969 RMK A01 T02150025  RH  029%=      5-min Rain = 0
KCH1 182346Z 25011G18KT 22/03 A2969 RMK A01 T02150026  RH  029%=      5-min Rain = 0
KCH1 182347Z 25011G18KT 22/02 A2969 RMK A01 T02150024  RH  028%=      5-min Rain = 0
KCH1 182348Z 24013KT 22/02 A2969 RMK A01 T02150023  RH  028%=      5-min Rain = 0
KCH1 182349Z 24011KT 22/02 A2969 RMK A01 T02150024  RH  028%=      5-min Rain = 0
KCH1 182350Z 24012KT 22/02 A2969 RMK A01 T02150024  RH  028%=      5-min Rain = 0
KCH1 182351Z 24009KT 22/02 A2969 RMK A01 T02150024  RH  028%=      5-min Rain = 0
KCH1 182352Z 24011KT 21/02 A2969 RMK A01 T02140024  RH  028%=      5-min Rain = 0
KCH1 182353Z 25013KT 21/02 A2969 RMK A01 T02140023  RH  028%=      5-min Rain = 0
KCH1 182354Z 24012KT 21/02 A2969 RMK A01 T02140021  RH  028%=      5-min Rain = 0
KCH1 182355Z 25011G18KT 22/02 A2969 RMK A01 T02150023  RH  028%=      5-min Rain = 0
KCH1 182356Z 25009G15KT 22/02 A2969 RMK A01 T02150024  RH  028%=      5-min Rain = 0
KCH1 182357Z 24012G17KT 21/02 A2969 RMK A01 T02140024  RH  028%=      5-min Rain = 0
KCH1 182358Z 24011G16KT 21/02 A2969 RMK A01 T02140023  RH  028%=      5-min Rain = 0
KCH1 182359Z 25011KT 21/02 A2969 RMK A01 T02140023  RH  028%=      5-min Rain = 0
KCH1 190000Z 25011G16KT 21/02 A2969 RMK A01 T02140023  RH  028%=      5-min Rain = 0
KCH1 190001Z 25009G14KT 21/02 A297 RMK A01 T02140023  RH  028%=      5-min Rain = 0
KCH1 190002Z 24009KT 21/02 A297 RMK A01 T02130023  RH  028%=      5-min Rain = 0
KCH1 190003Z 24008KT 21/02 A297 RMK A01 T02130024  RH  029%=      5-min Rain = 0
KCH1 190004Z 25009G14KT 21/03 A297 RMK A01 T02120025  RH  029%=      5-min Rain = 0
KCH1 190005Z 25008KT 21/03 A297 RMK A01 T02110025  RH  029%=      5-min Rain = 0
KCH1 190006Z 24010KT 21/03 A297 RMK A01 T02110025  RH  029%=      5-min Rain = 0
KCH1 190007Z 25011KT 21/03 A297 RMK A01 T02100025  RH  029%=      5-min Rain = 0
KCH1 190008Z 25011KT 21/03 A297 RMK A01 T02100025  RH  029%=      5-min Rain = 0
KCH1 190009Z 25011KT 21/02 A297 RMK A01 T02100024  RH  029%=      5-min Rain = 0
KCH1 190010Z 25013KT 21/02 A297 RMK A01 T02110024  RH  029%=      5-min Rain = 0
KCH1 190011Z 24010KT 21/02 A297 RMK A01 T02110024  RH  029%=      5-min Rain = 0
KCH1 190012Z 25011KT 21/03 A297 RMK A01 T02110025  RH  029%=      5-min Rain = 0
KCH1 190013Z 24012KT 21/03 A297 RMK A01 T02110025  RH  029%=      5-min Rain = 0
KCH1 190014Z 25010G15KT 21/03 A297 RMK A01 T02110025  RH  029%=      5-min Rain = 0
KCH1 190015Z 25011KT 21/03 A297 RMK A01 T02100026  RH  030%=      5-min Rain = 0
KCH1 190016Z 25010G16KT 21/03 A297 RMK A01 T02100026  RH  030%=      5-min Rain = 0
KCH1 190017Z 25009KT 21/03 A297 RMK A01 T02090026  RH  030%=      5-min Rain = 0
KCH1 190018Z 25014KT 21/03 A297 RMK A01 T02090026  RH  030%=      5-min Rain = 0
KCH1 190019Z 25014KT 21/03 A297 RMK A01 T02090025  RH  030%=      5-min Rain = 0
KCH1 190020Z 25011KT 21/03 A297 RMK A01 T02100026  RH  030%=      5-min Rain = 0
KCH1 190021Z 25012G17KT 21/03 A297 RMK A01 T02100026  RH  030%=      5-min Rain = 0
KCH1 190022Z 26012G17KT 21/03 A297 RMK A01 T02100027  RH  030%=      5-min Rain = 0
KCH1 190023Z 25011KT 21/03 A297 RMK A01 T02090026  RH  030%=      5-min Rain = 0
KCH1 190024Z 25012G18KT 21/03 A297 RMK A01 T02090028  RH  030%=      5-min Rain = 0
KCH1 190025Z 25012KT 21/03 A297 RMK A01 T02090027  RH  030%=      5-min Rain = 0
KCH1 190026Z 25010KT 21/03 A297 RMK A01 T02090028  RH  030%=      5-min Rain = 0
KCH1 190027Z 25012KT 21/03 A297 RMK A01 T02080028  RH  030%=      5-min Rain = 0
KCH1 190028Z 25012KT 21/03 A2971 RMK A01 T02080027  RH  030%=      5-min Rain = 0
KCH1 190029Z 25011KT 21/03 A2971 RMK A01 T02080028  RH  030%=      5-min Rain = 0
KCH1 190030Z 25009KT 21/03 A2971 RMK A01 T02070028  RH  031%=      5-min Rain = 0
KCH1 190031Z 25010KT 21/03 A2971 RMK A01 T02070028  RH  031%=      5-min Rain = 0
KCH1 190032Z 25012KT 21/03 A2971 RMK A01 T02070029  RH  031%=      5-min Rain = 0
KCH1 190033Z 25010KT 21/03 A2971 RMK A01 T02060028  RH  031%=      5-min Rain = 0
KCH1 190034Z 25011KT 21/03 A2971 RMK A01 T02060028  RH  031%=      5-min Rain = 0
KCH1 190035Z 26012KT 21/03 A2971 RMK A01 T02070028  RH  031%=      5-min Rain = 0
KCH1 190036Z 25013G18KT 21/03 A2971 RMK A01 T02070027  RH  030%=      5-min Rain = 0
KCH1 190037Z 25011KT 21/03 A2971 RMK A01 T02070027  RH  030%=      5-min Rain = 0
KCH1 190038Z 24012G19KT 21/03 A2971 RMK A01 T02070028  RH  030%=      5-min Rain = 0
KCH1 190039Z 25013G20KT 21/03 A2971 RMK A01 T02070027  RH  030%=      5-min Rain = 0
KCH1 190040Z 24010KT 21/03 A2971 RMK A01 T02070027  RH  030%=      5-min Rain = 0
KCH1 190041Z 25013KT 21/03 A2971 RMK A01 T02070027  RH  030%=      5-min Rain = 0
KCH1 190042Z 24011KT 21/03 A2971 RMK A01 T02080027  RH  030%=      5-min Rain = 0
KCH1 190043Z 25009KT 21/03 A2971 RMK A01 T02070028  RH  031%=      5-min Rain = 0
KCH1 190044Z 25011KT 21/03 A2971 RMK A01 T02070028  RH  031%=      5-min Rain = 0
KCH1 190045Z 25013G18KT 21/03 A2971 RMK A01 T02060027  RH  031%=      5-min Rain = 0
KCH1 190046Z 25012KT 21/03 A2971 RMK A01 T02060027  RH  030%=      5-min Rain = 0
KCH1 190047Z 25010KT 21/03 A2971 RMK A01 T02070027  RH  030%=      5-min Rain = 0
KCH1 190048Z 26013KT 21/03 A2971 RMK A01 T02070028  RH  031%=      5-min Rain = 0
KCH1 190049Z 25010KT 21/03 A2971 RMK A01 T02070028  RH  031%=      5-min Rain = 0
KCH1 190050Z 25012KT 21/03 A2971 RMK A01 T02060028  RH  031%=      5-min Rain = 0
KCH1 190051Z 26011KT 21/03 A2971 RMK A01 T02060028  RH  031%=      5-min Rain = 0
KCH1 190052Z 26012KT 21/03 A2971 RMK A01 T02060028  RH  031%=      5-min Rain = 0
KCH1 190053Z 27008KT 21/03 A2971 RMK A01 T02050028  RH  031%=      5-min Rain = 0
KCH1 190054Z 27009KT 21/03 A2972 RMK A01 T02050029  RH  031%=      5-min Rain = 0
KCH1 190055Z 28010KT 20/03 A2972 RMK A01 T02040030  RH  032%=      5-min Rain = 0
KCH1 190056Z 29011KT 20/03 A2972 RMK A01 T02030030  RH  032%=      5-min Rain = 0
KCH1 190057Z 29012KT 20/03 A2972 RMK A01 T02020031  RH  032%=      5-min Rain = 0
KCH1 190058Z 29013KT 20/03 A2973 RMK A01 T02010033  RH  033%=      5-min Rain = 0
KCH1 190059Z 29011G16KT 20/03 A2973 RMK A01 T02000033  RH  033%=      5-min Rain = 0
KCH1 190100Z 29019G25KT 20/03 A2973 RMK A01 T02000031  RH  033%=      5-min Rain = 0
KCH1 190101Z 29014KT 20/03 A2973 RMK A01 T02000032  RH  033%=      5-min Rain = 0
KCH1 190102Z 28017G25KT 20/03 A2973 RMK A01 T02000031  RH  033%=      5-min Rain = 0
KCH1 190103Z 29019G24KT 20/03 A2973 RMK A01 T02010030  RH  032%=      5-min Rain = 0
KCH1 190104Z 29016KT 20/03 A2973 RMK A01 T02010031  RH  032%=      5-min Rain = 0
KCH1 190105Z 29013G18KT 20/03 A2973 RMK A01 T02010032  RH  033%=      5-min Rain = 0
KCH1 190106Z 29016G21KT 20/03 A2974 RMK A01 T02000033  RH  033%=      5-min Rain = 0
KCH1 190107Z 30017G24KT 20/03 A2974 RMK A01 T01990034  RH  034%=      5-min Rain = 0
KCH1 190108Z 31017G23KT 20/03 A2974 RMK A01 T01980034  RH  034%=      5-min Rain = 0
KCH1 190109Z 30014G20KT 20/03 A2974 RMK A01 T01960034  RH  034%=      5-min Rain = 0
KCH1 190110Z 29015G20KT 20/04 A2975 RMK A01 T01950035  RH  035%=      5-min Rain = 0
KCH1 190111Z 29015G20KT 19/04 A2975 RMK A01 T01930035  RH  035%=      5-min Rain = 0
KCH1 190112Z 29017G26KT 19/04 A2975 RMK A01 T01920035  RH  035%=      5-min Rain = 0
KCH1 190113Z 30014G21KT 19/03 A2975 RMK A01 T01920034  RH  035%=      5-min Rain = 0
KCH1 190114Z 31012G17KT 19/04 A2975 RMK A01 T01910035  RH  036%=      5-min Rain = 0
KCH1 190115Z 30017G24KT 19/03 A2975 RMK A01 T01900034  RH  036%=      5-min Rain = 0
KCH1 190116Z 30012KT 19/03 A2975 RMK A01 T01890034  RH  036%=      5-min Rain = 0
KCH1 190117Z 30015KT 19/03 A2975 RMK A01 T01880034  RH  036%=      5-min Rain = 0
KCH1 190118Z 30013G21KT 19/03 A2975 RMK A01 T01880034  RH  036%=      5-min Rain = 0
KCH1 190119Z 30014G22KT 19/03 A2975 RMK A01 T01870034  RH  036%=      5-min Rain = 0
KCH1 190120Z 31017KT 19/03 A2975 RMK A01 T01860033  RH  036%=      5-min Rain = 0
KCH1 190121Z 31016KT 19/03 A2975 RMK A01 T01850033  RH  036%=      5-min Rain = 0
KCH1 190122Z 30018KT 19/03 A2975 RMK A01 T01850031  RH  036%=      5-min Rain = 0
KCH1 190123Z 30016KT 18/03 A2975 RMK A01 T01840030  RH  036%=      5-min Rain = 0
KCH1 190124Z 30016G22KT 18/03 A2975 RMK A01 T01840031  RH  036%=      5-min Rain = 0
KCH1 190125Z 30015KT 18/03 A2975 RMK A01 T01840030  RH  036%=      5-min Rain = 0
KCH1 190126Z 30017G27KT 18/03 A2975 RMK A01 T01830029  RH  036%=      5-min Rain = 0
KCH1 190127Z 30021G27KT 18/02 A2975 RMK A01 T01830024  RH  035%=      5-min Rain = 0
KCH1 190128Z 30021G26KT 18/02 A2975 RMK A01 T01830023  RH  034%=      5-min Rain = 0
KCH1 190129Z 30017G23KT 18/02 A2975 RMK A01 T01840022  RH  034%=      5-min Rain = 0
KCH1 190130Z 30016G21KT 18/02 A2975 RMK A01 T01830022  RH  034%=      5-min Rain = 0
KCH1 190131Z 31018G31KT 18/02 A2975 RMK A01 T01820021  RH  034%=      5-min Rain = 0
KCH1 190132Z 31013G18KT 18/02 A2976 RMK A01 T01810021  RH  034%=      5-min Rain = 0
KCH1 190133Z 30016G25KT 18/02 A2976 RMK A01 T01800021  RH  034%=      5-min Rain = 0
KCH1 190134Z 30019G25KT 18/02 A2976 RMK A01 T01790018  RH  034%=      5-min Rain = 0
KCH1 190135Z 30019G28KT 18/02 A2976 RMK A01 T01780016  RH  034%=      5-min Rain = 0
KCH1 190136Z 30024G32KT 18/01 A2976 RMK A01 T01780014  RH  033%=      5-min Rain = 0
KCH1 190137Z 31020G30KT 18/01 A2976 RMK A01 T01780011  RH  033%=      5-min Rain = 0
KCH1 190138Z 31024G33KT 18/01 A2976 RMK A01 T01770011  RH  033%=      5-min Rain = 0
KCH1 190139Z 30021G28KT 18/01 A2977 RMK A01 T01770010  RH  033%=      5-min Rain = 0
KCH1 190140Z 30021G27KT 18/01 A2977 RMK A01 T01760011  RH  033%=      5-min Rain = 0
KCH1 190141Z 30024G35KT 18/01 A2977 RMK A01 T01760010  RH  033%=      5-min Rain = 0
KCH1 190142Z 31017G26KT 18/01 A2977 RMK A01 T01760011  RH  033%=      5-min Rain = 0
KCH1 190143Z 31024G31KT 18/01 A2977 RMK A01 T01750012  RH  033%=      5-min Rain = 0
KCH1 190144Z 31026G31KT 17/01 A2977 RMK A01 T01740012  RH  033%=      5-min Rain = 0
KCH1 190145Z 31024G31KT 17/01 A2977 RMK A01 T01730012  RH  034%=      5-min Rain = 0
KCH1 190146Z 31023G37KT 17/01 A2977 RMK A01 T01720013  RH  034%=      5-min Rain = 0
KCH1 190147Z 32024G36KT 17/01 A2977 RMK A01 T01700012  RH  034%=      5-min Rain = 0
KCH1 190148Z 32018G24KT 17/01 A2977 RMK A01 T01690013  RH  035%=      5-min Rain = 0
KCH1 190149Z 32015KT 17/02 A2976 RMK A01 T01680015  RH  036%=      5-min Rain = 0
KCH1 190150Z 31018KT 17/01 A2976 RMK A01 T01670014  RH  036%=      5-min Rain = 0
KCH1 190151Z 32018KT 17/01 A2976 RMK A01 T01660014  RH  036%=      5-min Rain = 0
KCH1 190152Z 31016G24KT 17/01 A2976 RMK A01 T01660014  RH  036%=      5-min Rain = 0
KCH1 190153Z 32016KT 17/01 A2976 RMK A01 T01650014  RH  036%=      5-min Rain = 0
KCH1 190154Z 31015G21KT 17/01 A2976 RMK A01 T01650014  RH  036%=      5-min Rain = 0
KCH1 190155Z 30014KT 16/02 A2976 RMK A01 T01640015  RH  037%=      5-min Rain = 0
KCH1 190156Z 31012G17KT 16/02 A2976 RMK A01 T01630016  RH  037%=      5-min Rain = 0
KCH1 190157Z 30016G23KT 16/02 A2976 RMK A01 T01620017  RH  037%=      5-min Rain = 0
KCH1 190158Z 31016G21KT 16/02 A2977 RMK A01 T01620017  RH  037%=      5-min Rain = 0
KCH1 190159Z 31012KT 16/02 A2977 RMK A01 T01620017  RH  037%=      5-min Rain = 0
KCH1 190200Z 30014G20KT 16/02 A2977 RMK A01 T01610017  RH  038%=      5-min Rain = 0
KCH1 190201Z 30017G22KT 16/02 A2977 RMK A01 T01610016  RH  037%=      5-min Rain = 0
KCH1 190202Z 30017G22KT 16/01 A2977 RMK A01 T01610014  RH  037%=      5-min Rain = 0
KCH1 190203Z 31015G22KT 16/01 A2978 RMK A01 T01620014  RH  037%=      5-min Rain = 0
KCH1 190204Z 31017G22KT 16/02 A2978 RMK A01 T01620015  RH  037%=      5-min Rain = 0
KCH1 190205Z 31015G20KT 16/02 A2978 RMK A01 T01620016  RH  037%=      5-min Rain = 0
KCH1 190206Z 32013G21KT 16/02 A2978 RMK A01 T01620017  RH  037%=      5-min Rain = 0
KCH1 190207Z 30013G22KT 16/02 A2979 RMK A01 T01610017  RH  038%=      5-min Rain = 0
KCH1 190208Z 31018G24KT 16/02 A2978 RMK A01 T01610015  RH  037%=      5-min Rain = 0
KCH1 190209Z 31015G23KT 16/01 A2979 RMK A01 T01630014  RH  036%=      5-min Rain = 0
KCH1 190210Z 31016G21KT 16/01 A2979 RMK A01 T01630014  RH  037%=      5-min Rain = 0
KCH1 190211Z 31019G24KT 16/01 A2979 RMK A01 T01630014  RH  036%=      5-min Rain = 0
KCH1 190212Z 31019G24KT 16/01 A2979 RMK A01 T01630014  RH  036%=      5-min Rain = 0
KCH1 190213Z 31018G23KT 16/01 A298 RMK A01 T01640013  RH  036%=      5-min Rain = 0
KCH1 190214Z 32018G25KT 16/01 A298 RMK A01 T01640013  RH  036%=      5-min Rain = 0
KCH1 190215Z 32025G41KT 16/02 A298 RMK A01 T01640018  RH  037%=      5-min Rain = 0
KCH1 190216Z 31027G34KT 16/03 A298 RMK A01 T01610026  RH  040%=      5-min Rain = 0
KCH1 190217Z 31023G33KT 16/03 A2981 RMK A01 T01570029  RH  042%=      5-min Rain = 0
KCH1 190218Z 30023G31KT 15/03 A298 RMK A01 T01530033  RH  045%=      5-min Rain = 0
KCH1 190219Z 30023G28KT 15/03 A298 RMK A01 T01500034  RH  046%=      5-min Rain = 0
KCH1 190220Z 29025G33KT 15/03 A298 RMK A01 T01480031  RH  045%=      5-min Rain = 0
KCH1 190221Z 29022G30KT 15/03 A298 RMK A01 T01480030  RH  045%=      5-min Rain = 0
KCH1 190222Z 29023G30KT 15/03 A298 RMK A01 T01470030  RH  045%=      5-min Rain = 0
KCH1 190223Z 29021G27KT 15/03 A298 RMK A01 T01470025  RH  044%=      5-min Rain = 0
KCH1 190224Z 30022G27KT 15/03 A298 RMK A01 T01480026  RH  044%=      5-min Rain = 0
KCH1 190225Z 31021G27KT 15/02 A298 RMK A01 T01480021  RH  042%=      5-min Rain = 0
KCH1 190226Z 30023G31KT 15/02 A2981 RMK A01 T01500020  RH  041%=      5-min Rain = 0
KCH1 190227Z 29027G36KT 15/02 A2981 RMK A01 T01510021  RH  042%=      5-min Rain = 0
KCH1 190228Z 29022G33KT 15/02 A298 RMK A01 T01510020  RH  041%=      5-min Rain = 0
KCH1 190229Z 30020G27KT 15/02 A298 RMK A01 T01510019  RH  041%=      5-min Rain = 0
KCH1 190230Z 30020KT 15/02 A298 RMK A01 T01500016  RH  040%=      5-min Rain = 0
KCH1 190231Z 30022G29KT 15/01 A298 RMK A01 T01500014  RH  040%=      5-min Rain = 0
KCH1 190232Z 30024G32KT 15/01 A2979 RMK A01 T01510009  RH  038%=      5-min Rain = 0
KCH1 190233Z 30019G25KT 15/01 A298 RMK A01 T01520008  RH  038%=      5-min Rain = 0
KCH1 190234Z 30021G29KT 15/01 A298 RMK A01 T01530008  RH  037%=      5-min Rain = 0
KCH1 190235Z 28028G40KT 15/01 A2979 RMK A01 T01530005  RH  037%=      5-min Rain = 0
KCH1 190236Z 30027G40KT 15/01 A2979 RMK A01 T01540005  RH  036%=      5-min Rain = 0
KCH1 190237Z 31029G39KT 15/00 A298 RMK A01 T01530003  RH  036%=      5-min Rain = 0
KCH1 190238Z 30027G33KT 15/M00 A298 RMK A01 T01521001  RH  035%=      5-min Rain = 0
KCH1 190239Z 28031G46KT 15/00 A298 RMK A01 T01520001  RH  036%=      5-min Rain = 0
KCH1 190240Z 29030G38KT 15/00 A298 RMK A01 T01520004  RH  036%=      5-min Rain = 0
KCH1 190241Z 30027G35KT 15/01 A2981 RMK A01 T01520005  RH  037%=      5-min Rain = 0
KCH1 190242Z 30028G36KT 15/00 A298 RMK A01 T01510004  RH  037%=      5-min Rain = 0
KCH1 190243Z 31021G35KT 15/00 A298 RMK A01 T01520001  RH  036%=      5-min Rain = 0
KCH1 190244Z 31021G27KT 15/00 A298 RMK A01 T01530001  RH  035%=      5-min Rain = 0
KCH1 190245Z 29019KT 15/00 A298 RMK A01 T01530003  RH  036%=      5-min Rain = 0
KCH1 190246Z 29017G23KT 15/00 A298 RMK A01 T01520003  RH  036%=      5-min Rain = 0
KCH1 190247Z 28018KT 15/00 A298 RMK A01 T01520004  RH  036%=      5-min Rain = 0
KCH1 190248Z 28018G23KT 15/00 A298 RMK A01 T01510003  RH  036%=      5-min Rain = 0
KCH1 190249Z 28017G24KT 15/00 A298 RMK A01 T01520004  RH  036%=      5-min Rain = 0
KCH1 190250Z 28015G20KT 15/00 A298 RMK A01 T01520004  RH  036%=      5-min Rain = 0
KCH1 190251Z 29018G23KT 15/01 A298 RMK A01 T01520005  RH  037%=      5-min Rain = 0
KCH1 190252Z 29020G27KT 15/00 A298 RMK A01 T01520002  RH  036%=      5-min Rain = 0
KCH1 190253Z 28022KT 15/M00 A298 RMK A01 T01541001  RH  035%=      5-min Rain = 0
KCH1 190254Z 29019G28KT 16/M00 A298 RMK A01 T01551002  RH  034%=      5-min Rain = 0
KCH1 190255Z 29015G20KT 16/M00 A298 RMK A01 T01561002  RH  034%=      5-min Rain = 0
KCH1 190256Z 28018G23KT 16/M00 A298 RMK A01 T01561002  RH  034%=      5-min Rain = 0
KCH1 190257Z 28021G30KT 16/M01 A298 RMK A01 T01571011  RH  032%=      5-min Rain = 0
KCH1 190258Z 28015G23KT 16/M01 A298 RMK A01 T01601012  RH  031%=      5-min Rain = 0
KCH1 190259Z 28017G22KT 16/M01 A298 RMK A01 T01601012  RH  031%=      5-min Rain = 0
KCH1 190300Z 28015G24KT 16/M01 A2979 RMK A01 T01601012  RH  031%=      5-min Rain = 0
KCH1 190301Z 28015KT 16/M01 A2979 RMK A01 T01601011  RH  031%=      5-min Rain = 0
KCH1 190302Z 28012G17KT 16/M01 A2979 RMK A01 T01601013  RH  031%=      5-min Rain = 0
KCH1 190303Z 28012G17KT 16/M01 A2979 RMK A01 T01601011  RH  031%=      5-min Rain = 0
KCH1 190304Z 28014KT 16/M01 A2979 RMK A01 T01591009  RH  032%=      5-min Rain = 0
KCH1 190305Z 29015KT 16/M01 A2979 RMK A01 T01591010  RH  031%=      5-min Rain = 0
KCH1 190306Z 28016G21KT 16/M01 A2979 RMK A01 T01591010  RH  031%=      5-min Rain = 0
KCH1 190307Z 29015G24KT 16/M01 A2979 RMK A01 T01591013  RH  031%=      5-min Rain = 0
KCH1 190308Z 29015G23KT 16/M02 A2979 RMK A01 T01601015  RH  030%=      5-min Rain = 0
KCH1 190309Z 28019G27KT 16/M02 A2979 RMK A01 T01611019  RH  029%=      5-min Rain = 0
KCH1 190310Z 28016G22KT 16/M02 A2979 RMK A01 T01621020  RH  029%=      5-min Rain = 0
KCH1 190311Z 28014KT 16/M02 A2979 RMK A01 T01621019  RH  029%=      5-min Rain = 0
KCH1 190312Z 28012KT 16/M02 A2979 RMK A01 T01621016  RH  030%=      5-min Rain = 0
KCH1 190313Z 28015G21KT 16/M02 A2979 RMK A01 T01611015  RH  030%=      5-min Rain = 0
KCH1 190314Z 27014KT 16/M02 A2979 RMK A01 T01611018  RH  029%=      5-min Rain = 0
KCH1 190315Z 29017KT 16/M02 A2979 RMK A01 T01611018  RH  029%=      5-min Rain = 0
KCH1 190316Z 29019G24KT 16/M02 A2979 RMK A01 T01611020  RH  029%=      5-min Rain = 0
KCH1 190317Z 28015G20KT 16/M02 A2979 RMK A01 T01621020  RH  029%=      5-min Rain = 0
KCH1 190318Z 29023G31KT 16/M02 A2979 RMK A01 T01621023  RH  028%=      5-min Rain = 0
KCH1 190319Z 28020G26KT 16/M03 A2978 RMK A01 T01641028  RH  027%=      5-min Rain = 0
KCH1 190320Z 29021G30KT 17/M03 A2978 RMK A01 T01651030  RH  026%=      5-min Rain = 0
KCH1 190321Z 29019G25KT 17/M03 A2978 RMK A01 T01661032  RH  026%=      5-min Rain = 0
KCH1 190322Z 28018G27KT 17/M03 A2978 RMK A01 T01661031  RH  026%=      5-min Rain = 0
KCH1 190323Z 28021G28KT 17/M03 A2978 RMK A01 T01661031  RH  026%=      5-min Rain = 0
KCH1 190324Z 28018G24KT 17/M03 A2978 RMK A01 T01661032  RH  026%=      5-min Rain = 0
KCH1 190325Z 28015G20KT 17/M03 A2978 RMK A01 T01661031  RH  026%=      5-min Rain = 0
KCH1 190326Z 28017KT 17/M03 A2978 RMK A01 T01651028  RH  026%=      5-min Rain = 0
KCH1 190327Z 28015G21KT 16/M03 A2978 RMK A01 T01641029  RH  027%=      5-min Rain = 0
KCH1 190328Z 28012G18KT 16/M03 A2978 RMK A01 T01641029  RH  026%=      5-min Rain = 0
KCH1 190329Z 29014KT 16/M03 A2978 RMK A01 T01631028  RH  027%=      5-min Rain = 0
KCH1 190330Z 29018G24KT 16/M03 A2978 RMK A01 T01621029  RH  027%=      5-min Rain = 0
KCH1 190331Z 29015G20KT 16/M03 A2979 RMK A01 T01621030  RH  027%=      5-min Rain = 0
KCH1 190332Z 29014KT 16/M03 A2979 RMK A01 T01611028  RH  027%=      5-min Rain = 0
KCH1 190333Z 29014KT 16/M03 A2979 RMK A01 T01611029  RH  027%=      5-min Rain = 0
KCH1 190334Z 29012G18KT 16/M03 A2979 RMK A01 T01601029  RH  027%=      5-min Rain = 0
KCH1 190335Z 29016G22KT 16/M03 A2978 RMK A01 T01601029  RH  027%=      5-min Rain = 0
KCH1 190336Z 29021G28KT 16/M03 A2978 RMK A01 T01601033  RH  026%=      5-min Rain = 0
KCH1 190337Z 29016G32KT 16/M03 A2979 RMK A01 T01621033  RH  026%=      5-min Rain = 0
KCH1 190338Z 29022G28KT 16/M03 A2979 RMK A01 T01621034  RH  026%=      5-min Rain = 0
KCH1 190339Z 29025G36KT 16/M03 A2979 RMK A01 T01621034  RH  026%=      5-min Rain = 0
KCH1 190340Z 29025G34KT 16/M03 A2979 RMK A01 T01631034  RH  026%=      5-min Rain = 0
KCH1 190341Z 29022G29KT 16/M03 A2979 RMK A01 T01641033  RH  026%=      5-min Rain = 0
KCH1 190342Z 30024G29KT 16/M03 A298 RMK A01 T01641032  RH  026%=      5-min Rain = 0
KCH1 190343Z 29019G30KT 16/M03 A298 RMK A01 T01631029  RH  027%=      5-min Rain = 0
KCH1 190344Z 29020G26KT 16/M03 A298 RMK A01 T01621027  RH  027%=      5-min Rain = 0
KCH1 190345Z 28023G30KT 16/M03 A298 RMK A01 T01611025  RH  028%=      5-min Rain = 0
KCH1 190346Z 29022G34KT 16/M02 A298 RMK A01 T01601024  RH  028%=      5-min Rain = 0
KCH1 190347Z 29020G27KT 16/M03 A298 RMK A01 T01601025  RH  028%=      5-min Rain = 0
KCH1 190348Z 30019G28KT 16/M02 A2981 RMK A01 T01591023  RH  029%=      5-min Rain = 0
KCH1 190349Z 30026G38KT 16/M02 A2981 RMK A01 T01581022  RH  029%=      5-min Rain = 0
KCH1 190350Z 30021G28KT 16/M02 A2981 RMK A01 T01581019  RH  030%=      5-min Rain = 0
KCH1 190351Z 30019G27KT 16/M02 A2982 RMK A01 T01571015  RH  031%=      5-min Rain = 0
KCH1 190352Z 30023G31KT 15/M01 A2982 RMK A01 T01541008  RH  033%=      5-min Rain = 0
KCH1 190353Z 30023G29KT 15/M00 A2981 RMK A01 T01511002  RH  035%=      5-min Rain = 0
KCH1 190354Z 30025G31KT 15/00 A2982 RMK A01 T01490003  RH  037%=      5-min Rain = 0
KCH1 190355Z 31019G26KT 15/01 A2982 RMK A01 T01470006  RH  038%=      5-min Rain = 0
KCH1 190356Z 31018G26KT 15/01 A2983 RMK A01 T01450008  RH  039%=      5-min Rain = 0
KCH1 190357Z 31022G30KT 14/01 A2983 RMK A01 T01430010  RH  040%=      5-min Rain = 0
KCH1 190358Z 31019G26KT 14/01 A2983 RMK A01 T01410011  RH  041%=      5-min Rain = 0
KCH1 190359Z 31021G32KT 14/01 A2982 RMK A01 T01400011  RH  042%=      5-min Rain = 0
KCH1 190400Z 32020G25KT 14/01 A2982 RMK A01 T01390012  RH  042%=      5-min Rain = 0
KCH1 190401Z 31017G22KT 14/01 A2982 RMK A01 T01380013  RH  043%=      5-min Rain = 0
KCH1 190402Z 32021G27KT 14/01 A2982 RMK A01 T01360014  RH  044%=      5-min Rain = 0
KCH1 190403Z 32018G26KT 14/01 A2982 RMK A01 T01350014  RH  044%=      5-min Rain = 0
KCH1 190404Z 32017KT 13/01 A2982 RMK A01 T01330014  RH  044%=      5-min Rain = 0
KCH1 190405Z 32018KT 13/01 A2983 RMK A01 T01320014  RH  045%=      5-min Rain = 0
KCH1 190406Z 32017G22KT 13/02 A2983 RMK A01 T01300015  RH  045%=      5-min Rain = 0
KCH1 190407Z 32018G24KT 13/02 A2983 RMK A01 T01290016  RH  046%=      5-min Rain = 0
KCH1 190408Z 31021G27KT 13/02 A2983 RMK A01 T01280016  RH  046%=      5-min Rain = 0
KCH1 190409Z 31020G29KT 13/02 A2984 RMK A01 T01270016  RH  047%=      5-min Rain = 0
KCH1 190410Z 31017G23KT 13/02 A2984 RMK A01 T01260016  RH  047%=      5-min Rain = 0
KCH1 190411Z 31016KT 13/02 A2984 RMK A01 T01250016  RH  048%=      5-min Rain = 0
KCH1 190412Z 31018G24KT 12/02 A2984 RMK A01 T01240017  RH  048%=      5-min Rain = 0
KCH1 190413Z 31016G22KT 12/02 A2984 RMK A01 T01230018  RH  049%=      5-min Rain = 0
KCH1 190414Z 30018KT 12/02 A2984 RMK A01 T01220018  RH  049%=      5-min Rain = 0
KCH1 190415Z 30018KT 12/02 A2984 RMK A01 T01210017  RH  049%=      5-min Rain = 0
KCH1 190416Z 31014G20KT 12/02 A2985 RMK A01 T01210018  RH  049%=      5-min Rain = 0
KCH1 190417Z 31014KT 12/02 A2985 RMK A01 T01200019  RH  050%=      5-min Rain = 0
KCH1 190418Z 31013KT 12/02 A2985 RMK A01 T01190019  RH  050%=      5-min Rain = 0
KCH1 190419Z 31016KT 12/02 A2985 RMK A01 T01180019  RH  050%=      5-min Rain = 0
KCH1 190420Z 31019KT 12/02 A2985 RMK A01 T01180018  RH  050%=      5-min Rain = 0
KCH1 190421Z 32015G23KT 12/02 A2986 RMK A01 T01180018  RH  050%=      5-min Rain = 0
KCH1 190422Z 32017G23KT 12/02 A2986 RMK A01 T01180018  RH  050%=      5-min Rain = 0
KCH1 190423Z 30013G24KT 12/02 A2986 RMK A01 T01170019  RH  051%=      5-min Rain = 0
KCH1 190424Z 31013G20KT 12/02 A2987 RMK A01 T01160019  RH  051%=      5-min Rain = 0
KCH1 190425Z 31011KT 12/02 A2987 RMK A01 T01160019  RH  051%=      5-min Rain = 0
KCH1 190426Z 31017KT 12/02 A2987 RMK A01 T01150019  RH  052%=      5-min Rain = 0
KCH1 190427Z 31017G25KT 12/02 A2987 RMK A01 T01150018  RH  051%=      5-min Rain = 0
KCH1 190428Z 31022G27KT 12/02 A2987 RMK A01 T01150018  RH  051%=      5-min Rain = 0
KCH1 190429Z 31018KT 12/02 A2987 RMK A01 T01150017  RH  051%=      5-min Rain = 0
KCH1 190430Z 32018G25KT 11/02 A2987 RMK A01 T01140018  RH  051%=      5-min Rain = 0
KCH1 190431Z 32017G22KT 11/02 A2987 RMK A01 T01140018  RH  052%=      5-min Rain = 0
KCH1 190432Z 31023G29KT 11/02 A2987 RMK A01 T01130018  RH  052%=      5-min Rain = 0
KCH1 190433Z 31018G25KT 11/02 A2987 RMK A01 T01120017  RH  052%=      5-min Rain = 0
KCH1 190434Z 33015G20KT 11/02 A2988 RMK A01 T01110017  RH  052%=      5-min Rain = 0
KCH1 190435Z 33017G25KT 11/02 A2988 RMK A01 T01100017  RH  053%=      5-min Rain = 0
KCH1 190436Z 32023G30KT 11/01 A2987 RMK A01 T01080013  RH  052%=      5-min Rain = 0
KCH1 190437Z 32023G30KT 11/01 A2988 RMK A01 T01060012  RH  052%=      5-min Rain = 0
KCH1 190438Z 33020G31KT 10/01 A2988 RMK A01 T01040012  RH  053%=      5-min Rain = 0
KCH1 190439Z 32019KT 10/01 A2988 RMK A01 T01030012  RH  053%=      5-min Rain = 0
KCH1 190440Z 33020G27KT 10/01 A2988 RMK A01 T01010012  RH  054%=      5-min Rain = 0
KCH1 190441Z 33020G31KT 10/01 A2988 RMK A01 T01000011  RH  054%=      5-min Rain = 0
KCH1 190442Z 32018G26KT 10/01 A2989 RMK A01 T00990011  RH  054%=      5-min Rain = 0
KCH1 190443Z 32022G30KT 10/01 A2989 RMK A01 T00980011  RH  054%=      5-min Rain = 0
KCH1 190444Z 32020G26KT 10/01 A2989 RMK A01 T00970010  RH  054%=      5-min Rain = 0
KCH1 190445Z 32019G29KT 10/01 A2989 RMK A01 T00970010  RH  055%=      5-min Rain = 0
KCH1 190446Z 32020G30KT 10/01 A2989 RMK A01 T00960009  RH  055%=      5-min Rain = 0
KCH1 190447Z 32020G28KT 10/01 A2989 RMK A01 T00950010  RH  055%=      5-min Rain = 0
KCH1 190448Z 33024G30KT 09/01 A2989 RMK A01 T00940009  RH  055%=      5-min Rain = 0
KCH1 190449Z 33022KT 09/01 A299 RMK A01 T00940008  RH  055%=      5-min Rain = 0
KCH1 190450Z 33017G24KT 09/01 A299 RMK A01 T00930008  RH  055%=      5-min Rain = 0
KCH1 190451Z 33026G34KT 09/01 A299 RMK A01 T00920008  RH  056%=      5-min Rain = 0
KCH1 190452Z 32025G34KT 09/01 A299 RMK A01 T00910007  RH  056%=      5-min Rain = 0
KCH1 190453Z 33025G37KT 09/01 A299 RMK A01 T00910007  RH  056%=      5-min Rain = 0
KCH1 190454Z 32018G26KT 09/01 A299 RMK A01 T00900007  RH  056%=      5-min Rain = 0
KCH1 190455Z 32018G27KT 09/01 A299 RMK A01 T00890008  RH  057%=      5-min Rain = 0
KCH1 190456Z 32024KT 09/01 A299 RMK A01 T00880007  RH  057%=      5-min Rain = 0
KCH1 190457Z 32016G22KT 09/01 A299 RMK A01 T00870007  RH  057%=      5-min Rain = 0
KCH1 190458Z 32014G22KT 09/01 A2991 RMK A01 T00870008  RH  058%=      5-min Rain = 0
KCH1 190459Z 33017G25KT 09/01 A2991 RMK A01 T00860008  RH  058%=      5-min Rain = 0
KCH1 190500Z 33018G31KT 09/01 A2991 RMK A01 T00850007  RH  058%=      5-min Rain = 0
KCH1 190501Z 32021G27KT 09/01 A2991 RMK A01 T00850006  RH  058%=      5-min Rain = 0
KCH1 190502Z 33021G28KT 08/01 A2991 RMK A01 T00840006  RH  058%=      5-min Rain = 0
KCH1 190503Z 33017G22KT 08/01 A2991 RMK A01 T00830006  RH  058%=      5-min Rain = 0
KCH1 190504Z 33017G23KT 08/01 A2991 RMK A01 T00820006  RH  059%=      5-min Rain = 0
KCH1 190505Z 33018G26KT 08/01 A2991 RMK A01 T00820006  RH  059%=      5-min Rain = 0
KCH1 190506Z 32019G25KT 08/01 A2991 RMK A01 T00810006  RH  059%=      5-min Rain = 0
KCH1 190507Z 33020G29KT 08/01 A2991 RMK A01 T00810006  RH  059%=      5-min Rain = 0
KCH1 190508Z 32016G24KT 08/01 A2992 RMK A01 T00800005  RH  059%=      5-min Rain = 0
KCH1 190509Z 32020G27KT 08/01 A2992 RMK A01 T00800006  RH  060%=      5-min Rain = 0
KCH1 190510Z 32020G29KT 08/01 A2991 RMK A01 T00790006  RH  060%=      5-min Rain = 0
KCH1 190511Z 33021KT 08/01 A2991 RMK A01 T00790006  RH  060%=      5-min Rain = 0
KCH1 190512Z 32024G30KT 08/01 A2992 RMK A01 T00780005  RH  060%=      5-min Rain = 0
KCH1 190513Z 33019G25KT 08/01 A2991 RMK A01 T00780005  RH  060%=      5-min Rain = 0
KCH1 190514Z 32023G29KT 08/01 A2991 RMK A01 T00770005  RH  060%=      5-min Rain = 0
KCH1 190515Z 32021G26KT 08/01 A2991 RMK A01 T00770005  RH  060%=      5-min Rain = 0
KCH1 190516Z 33022G28KT 08/01 A2991 RMK A01 T00770005  RH  061%=      5-min Rain = 0
KCH1 190517Z 33023G32KT 08/01 A2991 RMK A01 T00760005  RH  060%=      5-min Rain = 0
KCH1 190518Z 33020G26KT 08/01 A2992 RMK A01 T00760005  RH  061%=      5-min Rain = 0
KCH1 190519Z 33017G26KT 08/00 A2992 RMK A01 T00750004  RH  061%=      5-min Rain = 0
KCH1 190520Z 33017G22KT 08/00 A2992 RMK A01 T00750004  RH  061%=      5-min Rain = 0
KCH1 190521Z 32016G24KT 07/01 A2992 RMK A01 T00740005  RH  061%=      5-min Rain = 0
KCH1 190522Z 32018G23KT 07/01 A2992 RMK A01 T00740005  RH  062%=      5-min Rain = 0
KCH1 190523Z 33017G25KT 07/01 A2992 RMK A01 T00730005  RH  062%=      5-min Rain = 0
KCH1 190524Z 33019G24KT 07/01 A2992 RMK A01 T00730005  RH  062%=      5-min Rain = 0
KCH1 190525Z 32020G26KT 07/00 A2992 RMK A01 T00730004  RH  062%=      5-min Rain = 0
KCH1 190526Z 33018G24KT 07/00 A2992 RMK A01 T00730004  RH  062%=      5-min Rain = 0
KCH1 190527Z 33019G27KT 07/01 A2992 RMK A01 T00730005  RH  062%=      5-min Rain = 0
KCH1 190528Z 33018KT 07/00 A2992 RMK A01 T00730004  RH  062%=      5-min Rain = 0
KCH1 190529Z 33015G20KT 07/01 A2993 RMK A01 T00730005  RH  062%=      5-min Rain = 0
KCH1 190530Z 33018G25KT 07/01 A2993 RMK A01 T00730005  RH  062%=      5-min Rain = 0
KCH1 190531Z 33020G30KT 07/01 A2993 RMK A01 T00730005  RH  062%=      5-min Rain = 0
KCH1 190532Z 33022G27KT 07/00 A2993 RMK A01 T00730004  RH  062%=      5-min Rain = 0
KCH1 190533Z 33018G25KT 07/00 A2993 RMK A01 T00730004  RH  062%=      5-min Rain = 0
KCH1 190534Z 33015KT 07/01 A2993 RMK A01 T00730005  RH  062%=      5-min Rain = 0
KCH1 190535Z 34014KT 07/01 A2993 RMK A01 T00730005  RH  062%=      5-min Rain = 0
KCH1 190536Z 33018G23KT 07/01 A2993 RMK A01 T00730005  RH  062%=      5-min Rain = 0
KCH1 190537Z 33019G25KT 07/01 A2993 RMK A01 T00730005  RH  062%=      5-min Rain = 0
KCH1 190538Z 33019G25KT 07/00 A2993 RMK A01 T00730004  RH  062%=      5-min Rain = 0
KCH1 190539Z 34015G23KT 07/00 A2994 RMK A01 T00730004  RH  062%=      5-min Rain = 0
KCH1 190540Z 33015G20KT 07/00 A2994 RMK A01 T00720004  RH  062%=      5-min Rain = 0
KCH1 190541Z 33015G23KT 07/00 A2994 RMK A01 T00720004  RH  062%=      5-min Rain = 0
KCH1 190542Z 34016G26KT 07/00 A2994 RMK A01 T00710004  RH  062%=      5-min Rain = 0
KCH1 190543Z 34014G21KT 07/00 A2994 RMK A01 T00710003  RH  062%=      5-min Rain = 0
KCH1 190544Z 33018G24KT 07/00 A2994 RMK A01 T00700003  RH  062%=      5-min Rain = 0
KCH1 190545Z 34019G25KT 07/00 A2994 RMK A01 T00700003  RH  062%=      5-min Rain = 0
KCH1 190546Z 33013KT 07/00 A2994 RMK A01 T00700003  RH  063%=      5-min Rain = 0
KCH1 190547Z 32011G16KT 07/00 A2994 RMK A01 T00690003  RH  063%=      5-min Rain = 0
KCH1 190548Z 34012G19KT 07/00 A2994 RMK A01 T00690003  RH  063%=      5-min Rain = 0
KCH1 190549Z 33013G24KT 07/00 A2994 RMK A01 T00680004  RH  063%=      5-min Rain = 0
KCH1 190550Z 33020G26KT 07/00 A2994 RMK A01 T00680003  RH  063%=      5-min Rain = 0
KCH1 190551Z 33016G22KT 07/00 A2994 RMK A01 T00680003  RH  063%=      5-min Rain = 0
KCH1 190552Z 32016G22KT 07/00 A2994 RMK A01 T00680003  RH  063%=      5-min Rain = 0
KCH1 190553Z 33016KT 07/00 A2994 RMK A01 T00680003  RH  063%=      5-min Rain = 0
KCH1 190554Z 32013G18KT 07/00 A2995 RMK A01 T00680003  RH  063%=      5-min Rain = 0
KCH1 190555Z 34016G21KT 07/00 A2995 RMK A01 T00670003  RH  064%=      5-min Rain = 0
KCH1 190556Z 33015G27KT 07/00 A2995 RMK A01 T00670004  RH  064%=      5-min Rain = 0
KCH1 190557Z 32018G24KT 07/00 A2994 RMK A01 T00670003  RH  064%=      5-min Rain = 0
KCH1 190558Z 33016G22KT 07/00 A2995 RMK A01 T00670003  RH  064%=      5-min Rain = 0
KCH1 190559Z 33016G21KT 07/00 A2995 RMK A01 T00670003  RH  064%=      5-min Rain = 0

Page generated in 0.1241 seconds.